Zarling — WDD7883 — position and weather

sailwx.info

Track history (hours):
 
Tides and Currents Weather Stations Pressure Air Temp Water Temp Dewpoint Dewpoint Depression Visibility Wind Speed Wind Dir Waves Ship Positions

Zarling

Owner: Clean Rivers Co-op, Portland, OR. More information available from US FCC via Universal Licensing System.

Last reported at 2016-Dec-05 16:31 UTC. Time now 2016-Dec-05 16:42 UTC.
Position N 46°10' W 123°03'.

Length 12 m.

Type: Pollution control. MMSI: 3699126.

Date/timePositionNaut miles runAvg speedWind from/ knotsBaromVisibWave heightAir tempDewpointWater temp
2016-Dec-05 16:31N 46°10' W 123°03'352911.2
2016-Dec-05 16:30N 45°37' W 122°48'295735.6
2016-Dec-05 16:30N 46°05' W 122°56'2929.5
2016-Dec-05 15:32N 45°37' W 122°48'353294.3
2016-Dec-05 15:31N 46°10' W 123°03'7388.9
2016-Dec-05 15:30N 46°05' W 122°56'20177.4
2016-Dec-05 15:23N 46°12' W 123°23'0 0.0
2016-Dec-05 14:32N 46°12' W 123°23'437350.8
2016-Dec-05 14:32N 45°37' W 122°48'35576.9
2016-Dec-05 14:28N 46°10' W 123°03'7103.8
2016-Dec-05 14:24N 46°05' W 122°56'0 0.0
2016-Dec-05 13:33N 46°05' W 122°56'201437.0
2016-Dec-05 13:32N 46°12' W 123°23'437350.8
2016-Dec-05 13:32N 45°37' W 122°48'352911.2
2016-Dec-05 13:31N 46°10' W 123°03'7 7.5
2016-Dec-05 12:33N 46°05' W 122°56'29403.3
2016-Dec-05 12:29N 45°37' W 122°48'35563.9
2016-Dec-05 12:25N 46°10' W 123°03'14436.9
2016-Dec-05 12:23N 46°12' W 123°23'2024.3
2016-Dec-05 11:33N 46°05' W 122°56'7234.7
2016-Dec-05 11:31N 46°10' W 123°03'35894.2
2016-Dec-05 11:29N 45°37' W 122°48'43970.9
2016-Dec-05 11:26N 46°12' W 123°23'0 0.0
2016-Dec-05 10:32N 46°12' W 123°23'437350.8
2016-Dec-05 10:32N 45°37' W 122°48'353129.6
2016-Dec-05 10:31N 46°10' W 123°03'7106.8
2016-Dec-05 10:27N 46°05' W 122°56'0 0.0
2016-Dec-05 09:33N 46°05' W 122°56'201437.0
2016-Dec-05 09:32N 46°12' W 123°23'436711.6
2016-Dec-05 09:32N 45°37' W 122°48'35574.2
2016-Dec-05 09:28N 46°10' W 123°03'7 7.9
2016-Dec-05 08:33N 46°05' W 122°56'291358.4
2016-Dec-05 08:32N 45°37' W 122°48'353294.3
2016-Dec-05 08:31N 46°10' W 123°03'1449.3
2016-Dec-05 08:14N 46°12' W 123°23'0 0.0
2016-Dec-05 07:32N 46°12' W 123°23'437718.4
2016-Dec-05 07:32N 45°37' W 122°48'353209.8
2016-Dec-05 07:31N 46°10' W 123°03'7383.2
2016-Dec-05 07:30N 46°05' W 122°56'0 0.0
2016-Dec-05 06:33N 46°05' W 122°56'291395.1
2016-Dec-05 06:32N 45°37' W 122°48'353209.8
2016-Dec-05 06:31N 46°10' W 123°03'1476.1
2016-Dec-05 06:20N 46°12' W 123°23'2025.9
2016-Dec-05 05:33N 46°05' W 122°56'201332.5
2016-Dec-05 05:32N 46°12' W 123°23'437718.4
2016-Dec-05 05:32N 45°37' W 122°48'353294.3
2016-Dec-05 05:31N 46°10' W 123°03'3535.3
2016-Dec-05 04:32N 45°37' W 122°48'352196.2
2016-Dec-05 04:31N 46°10' W 123°03'7105.1
2016-Dec-05 04:27N 46°05' W 122°56'2929.5
2016-Dec-05 03:29N 45°37' W 122°48'29222.5
2016-Dec-05 03:21N 46°05' W 122°56'7232.7
2016-Dec-05 03:19N 46°10' W 123°03'7 9.4
2016-Dec-05 02:33N 46°05' W 122°56'291376.5
2016-Dec-05 02:32N 45°37' W 122°48'353681.9
2016-Dec-05 02:31N 46°10' W 123°03'0 0.0
2016-Dec-05 01:31N 46°10' W 123°03'7104.2
2016-Dec-05 01:27N 46°05' W 122°56'291395.1
2016-Dec-05 01:26N 45°37' W 122°48'2932.6
2016-Dec-05 00:33N 46°05' W 122°56'291496.2
2016-Dec-05 00:32N 45°37' W 122°48'35571.6
2016-Dec-05 00:28N 46°10' W 123°03'7 7.9
2016-Dec-04 23:33N 46°05' W 122°56'291376.5
2016-Dec-04 23:32N 45°37' W 122°48'353477.3
2016-Dec-04 23:31N 46°10' W 123°03'3535.1
2016-Dec-04 22:32N 45°37' W 122°48'35320.2
2016-Dec-04 22:25N 46°10' W 123°03'7101.4
2016-Dec-04 22:21N 46°05' W 122°56'0 0.0
2016-Dec-04 21:30N 46°05' W 122°56'7245.8
2016-Dec-04 21:28N 46°10' W 123°03'35851.6
2016-Dec-04 21:26N 45°37' W 122°48'3538.3
2016-Dec-04 20:31N 46°10' W 123°03'7342.9
2016-Dec-04 20:30N 46°05' W 122°56'29414.6
2016-Dec-04 20:26N 45°37' W 122°48'0 0.0
2016-Dec-04 19:32N 45°37' W 122°48'352980.6
2016-Dec-04 19:31N 46°10' W 123°03'7103.0
2016-Dec-04 19:27N 46°05' W 122°56'2931.2
2016-Dec-04 18:32N 45°37' W 122°48'353912.0
2016-Dec-04 18:31N 46°10' W 123°03'7356.9
2016-Dec-04 18:30N 46°05' W 122°56'0 0.0
2016-Dec-04 17:33N 46°05' W 122°56'7248.2
2016-Dec-04 17:31N 46°10' W 123°03'35823.6
2016-Dec-04 17:29N 45°37' W 122°48'0 0.0
2016-Dec-04 16:32N 45°37' W 122°48'354038.2
2016-Dec-04 16:31N 46°10' W 123°03'7103.4
2016-Dec-04 16:27N 46°05' W 122°56'0 0.0
2016-Dec-04 15:33N 46°05' W 122°56'7248.2
2016-Dec-04 15:31N 46°10' W 123°03'35245.5
2016-Dec-04 15:23N 45°37' W 122°48'2934.6
2016-Dec-04 14:33N 46°05' W 122°56'291454.1
2016-Dec-04 14:32N 45°37' W 122°48'353912.0
2016-Dec-04 14:31N 46°10' W 123°03'7 7.5
2016-Dec-04 13:33N 46°05' W 122°56'7255.5
2016-Dec-04 13:31N 46°10' W 123°03'35823.6
2016-Dec-04 13:29N 45°37' W 122°48'2930.8
2016-Dec-04 12:33N 46°05' W 122°56'291395.1
2016-Dec-04 12:32N 45°37' W 122°48'35322.6
2016-Dec-04 12:25N 46°10' W 123°03'7 8.3
2016-Dec-04 11:33N 46°05' W 122°56'291376.5
2016-Dec-04 11:32N 45°37' W 122°48'354316.7
2016-Dec-04 11:31N 46°10' W 123°03'7 7.5
2016-Dec-04 10:33N 46°05' W 122°56'29406.5
2016-Dec-04 10:29N 45°37' W 122°48'354470.8
2016-Dec-04 10:28N 46°10' W 123°03'7 7.9
2016-Dec-04 09:33N 46°05' W 122°56'29409.7
2016-Dec-04 09:29N 45°37' W 122°48'35321.8
2016-Dec-04 09:22N 46°10' W 123°03'7 8.8
2016-Dec-04 08:33N 46°05' W 122°56'291358.4
2016-Dec-04 08:32N 45°37' W 122°48'355961.1
2016-Dec-04 08:31N 46°10' W 123°03'3535.0
2016-Dec-04 07:32N 45°37' W 122°48'354636.4
2016-Dec-04 07:31N 46°10' W 123°03'7325.7
2016-Dec-04 07:30N 46°05' W 122°56'0 0.0
2016-Dec-04 06:33N 46°05' W 122°56'291358.4
2016-Dec-04 06:32N 45°37' W 122°48'35610.7
2016-Dec-04 06:28N 46°10' W 123°03'7 7.9
2016-Dec-04 05:33N 46°05' W 122°56'291376.5
2016-Dec-04 05:32N 45°37' W 122°48'355216.0
2016-Dec-04 05:31N 46°10' W 123°03'7 7.4
2016-Dec-04 04:33N 46°05' W 122°56'291395.1
2016-Dec-04 04:32N 45°37' W 122°48'35222.4
2016-Dec-04 04:22N 46°10' W 123°03'7 8.8
2016-Dec-04 03:33N 46°05' W 122°56'291414.3
2016-Dec-04 03:32N 45°37' W 122°48'355007.3
2016-Dec-04 03:31N 46°10' W 123°03'7 7.4
2016-Dec-04 02:33N 46°05' W 122°56'291395.1
2016-Dec-04 02:32N 45°37' W 122°48'355216.0
2016-Dec-04 02:31N 46°10' W 123°03'7 7.1
2016-Dec-04 01:30N 46°05' W 122°56'7265.9
2016-Dec-04 01:28N 46°10' W 123°03'35179.9
2016-Dec-04 01:17N 45°37' W 122°48'2939.3
2016-Dec-04 00:33N 46°05' W 122°56'291474.9
2016-Dec-04 00:32N 45°37' W 122°48'354814.8
2016-Dec-04 00:31N 46°10' W 123°03'7 7.4
2016-Dec-03 23:33N 46°05' W 122°56'7260.6
2016-Dec-03 23:31N 46°10' W 123°03'35143.1
2016-Dec-03 23:17N 45°37' W 122°48'2939.3
2016-Dec-03 22:33N 46°05' W 122°56'29239.5
2016-Dec-03 22:26N 45°37' W 122°48'355690.2
2016-Dec-03 22:25N 46°10' W 123°03'7 8.3
2016-Dec-03 21:33N 46°05' W 122°56'291433.9
2016-Dec-03 21:32N 45°37' W 122°48'355442.8
2016-Dec-03 21:31N 46°10' W 123°03'7 7.4
2016-Dec-03 20:33N 46°05' W 122°56'291376.5
2016-Dec-03 20:32N 45°37' W 122°48'35329.4
2016-Dec-03 20:25N 46°10' W 123°03'7 8.3
2016-Dec-03 19:33N 46°05' W 122°56'291414.3
2016-Dec-03 19:32N 45°37' W 122°48'358345.6
2016-Dec-03 19:31N 46°10' W 123°03'7 6.7
2016-Dec-03 18:26N 46°05' W 122°56'292716.9
2016-Dec-03 18:26N 45°37' W 122°48'35113.9
2016-Dec-03 18:07N 46°10' W 123°03'712.6
2016-Dec-03 17:33N 46°05' W 122°56'741.2
2016-Dec-03 17:22N 46°10' W 123°03'35777.5
2016-Dec-03 17:20N 45°37' W 122°48'2936.8
2016-Dec-03 16:33N 46°05' W 122°56'29404.9
2016-Dec-03 16:29N 45°37' W 122°48'35632.2
2016-Dec-03 16:25N 46°10' W 123°03'3540.2
2016-Dec-03 15:33N 45°37' W 122°48'293226.3
2016-Dec-03 15:33N 46°05' W 122°56'7289.5
2016-Dec-03 15:31N 46°10' W 123°03'7 7.4
2016-Dec-03 14:33N 46°05' W 122°56'293687.2
2016-Dec-03 14:32N 45°37' W 122°48'352121.8
2016-Dec-03 14:31N 46°10' W 123°03'0 0.0
2016-Dec-03 13:32N 46°10' W 123°03'356588.6
2016-Dec-03 13:32N 45°37' W 122°48'29394.0
2016-Dec-03 13:27N 46°05' W 122°56'0 0.0
2016-Dec-03 12:33N 46°05' W 122°56'291395.1
2016-Dec-03 12:32N 45°37' W 122°48'357824.0
2016-Dec-03 12:31N 46°10' W 123°03'7 7.4
2016-Dec-03 11:33N 46°05' W 122°56'291433.9
2016-Dec-03 11:32N 45°37' W 122°48'356259.2
2016-Dec-03 11:31N 46°10' W 123°03'3534.9
2016-Dec-03 10:32N 45°37' W 122°48'357824.0
2016-Dec-03 10:31N 46°10' W 123°03'726.3
2016-Dec-03 10:15N 46°05' W 122°56'0 0.0
2016-Dec-03 09:33N 46°05' W 122°56'7296.1
2016-Dec-03 09:31N 46°10' W 123°03'35745.1
2016-Dec-03 09:29N 45°37' W 122°48'0 0.0
2016-Dec-03 08:32N 45°37' W 122°48'3510432.0
2016-Dec-03 08:31N 46°10' W 123°03'795.4
2016-Dec-03 08:27N 46°05' W 122°56'2931.1
2016-Dec-03 07:32N 45°37' W 122°48'3511380.3
2016-Dec-03 07:31N 46°10' W 123°03'794.4
2016-Dec-03 07:27N 46°05' W 122°56'2931.2
2016-Dec-03 06:32N 45°37' W 122°48'358345.6
2016-Dec-03 06:31N 46°10' W 123°03'7283.2
2016-Dec-03 06:30N 46°05' W 122°56'0 0.0
2016-Dec-03 05:33N 46°05' W 122°56'291433.9
2016-Dec-03 05:32N 45°37' W 122°48'358941.7
2016-Dec-03 05:31N 46°10' W 123°03'0 0.0
2016-Dec-03 04:31N 46°10' W 123°03'794.8
2016-Dec-03 04:27N 46°05' W 122°56'291433.9
2016-Dec-03 04:26N 45°37' W 122°48'2932.6
2016-Dec-03 03:33N 46°05' W 122°56'291358.4
2016-Dec-03 03:32N 45°37' W 122°48'3511380.3
2016-Dec-03 03:31N 46°10' W 123°03'7 7.4
2016-Dec-03 02:33N 46°05' W 122°56'798.3
2016-Dec-03 02:28N 46°10' W 123°03'35359.7
2016-Dec-03 02:23N 45°37' W 122°48'0 0.0
2016-Dec-03 01:32N 45°37' W 122°48'29357.2
2016-Dec-03 01:27N 46°05' W 122°56'759.1
2016-Dec-03 01:19N 46°10' W 123°03'3543.6
2016-Dec-03 00:32N 45°37' W 122°48'3513909.3
2016-Dec-03 00:31N 46°10' W 123°03'794.4
2016-Dec-03 00:27N 46°05' W 122°56'2094.8
2016-Dec-03 00:14N 46°12' W 123°23'4360.7
2016-Dec-02 23:32N 45°37' W 122°48'35343.9
2016-Dec-02 23:26N 46°10' W 123°03'740.5
2016-Dec-02 23:15N 46°05' W 122°56'0 0.0
2016-Dec-02 22:33N 46°05' W 122°56'291540.9
2016-Dec-02 22:32N 45°37' W 122°48'359629.5
2016-Dec-02 22:31N 46°10' W 123°03'0 0.0
2016-Dec-02 21:31N 46°10' W 123°03'7253.0
2016-Dec-02 21:30N 46°05' W 122°56'291474.9
2016-Dec-02 21:29N 45°37' W 122°48'2930.8
2016-Dec-02 20:33N 46°05' W 122°56'291414.3
2016-Dec-02 20:32N 45°37' W 122°48'3517883.4
2016-Dec-02 20:31N 46°10' W 123°03'3534.8
2016-Dec-02 19:32N 45°37' W 122°48'35137.9
2016-Dec-02 19:16N 46°10' W 123°03'756.8
2016-Dec-02 19:09N 46°05' W 122°56'711.6
2016-Dec-02 18:31N 46°10' W 123°03'35736.4
2016-Dec-02 18:29N 45°37' W 122°48'29124.4
2016-Dec-02 18:15N 46°05' W 122°56'0 0.0
2016-Dec-02 17:33N 46°05' W 122°56'7347.4
2016-Dec-02 17:32N 46°10' W 123°03'35707.3
2016-Dec-02 17:29N 45°37' W 122°48'3536.5
2016-Dec-02 16:31N 46°10' W 123°03'35715.3
2016-Dec-02 16:29N 45°37' W 122°48'29361.0
2016-Dec-02 16:24N 46°05' W 122°56'2932.9
2016-Dec-02 15:32N 45°37' W 122°48'35680.3
2016-Dec-02 15:29N 46°10' W 123°03'7292.8
2016-Dec-02 15:27N 46°05' W 122°56'0 0.0
2016-Dec-02 14:33N 46°05' W 122°56'291414.3
2016-Dec-02 14:32N 45°37' W 122°48'3525036.7
2016-Dec-02 14:32N 46°10' W 123°03'3534.8
2016-Dec-02 13:32N 45°37' W 122°48'3520864.0
2016-Dec-02 13:31N 46°10' W 123°03'792.7
2016-Dec-02 13:27N 46°05' W 122°56'0 0.0
2016-Dec-02 12:33N 46°05' W 122°56'291395.1
2016-Dec-02 12:32N 45°37' W 122°48'3525036.7
2016-Dec-02 12:32N 46°10' W 123°03'7 7.4
2016-Dec-02 11:33N 46°05' W 122°56'291433.9
2016-Dec-02 11:32N 45°37' W 122°48'3517883.4
2016-Dec-02 11:32N 46°10' W 123°03'3534.8
2016-Dec-02 10:32N 45°37' W 122°48'29974.0
2016-Dec-02 10:30N 46°05' W 122°56'7102.2
2016-Dec-02 10:26N 46°10' W 123°03'3534.8
2016-Dec-02 09:26N 45°37' W 122°48'3562591.9
2016-Dec-02 09:26N 46°10' W 123°03'7245.8
2016-Dec-02 09:24N 46°05' W 122°56'0 0.0
2016-Dec-02 08:15N 46°05' W 122°56'291414.3
2016-Dec-02 08:14N 45°37' W 122°48'3562591.9
2016-Dec-02 08:14N 46°10' W 123°03'710.7
2016-Dec-02 07:33N 46°05' W 122°56'291474.9
2016-Dec-02 07:32N 45°37' W 122°48'35375.9
2016-Dec-02 07:26N 46°10' W 123°03'0 0.0
2016-Dec-02 06:29N 46°10' W 123°03'35326.9
2016-Dec-02 06:23N 45°37' W 122°48'29353.6
2016-Dec-02 06:18N 46°05' W 122°56'0 0.0
2016-Dec-02 05:33N 46°05' W 122°56'291358.4
2016-Dec-02 05:32N 45°37' W 122°48'35125183.7
2016-Dec-02 05:32N 46°10' W 123°03'7 7.4
2016-Dec-02 04:33N 46°05' W 122°56'7361.9
2016-Dec-02 04:32N 46°10' W 123°03'3541727.9
2016-Dec-02 04:32N 45°37' W 122°48'2929.3
2016-Dec-02 03:33N 46°05' W 122°56'7356.9
2016-Dec-02 03:32N 46°10' W 123°03'3531295.9
2016-Dec-02 03:32N 45°37' W 122°48'3534.8
2016-Dec-02 02:32N 46°10' W 123°03'7239.1
2016-Dec-02 02:30N 46°05' W 122°56'291433.9
2016-Dec-02 02:29N 45°37' W 122°48'2930.8
2016-Dec-02 01:33N 46°05' W 122°56'7372.2
2016-Dec-02 01:32N 46°10' W 123°03'3541727.9
2016-Dec-02 01:32N 45°37' W 122°48'2925.4
2016-Dec-02 00:24N 46°05' W 122°56'7263.2
2016-Dec-02 00:22N 46°10' W 123°03'35807.6
2016-Dec-02 00:20N 45°37' W 122°48'2936.8
2016-Dec-01 23:33N 46°05' W 122°56'291518.2
2016-Dec-01 23:32N 45°37' W 122°48'35593.3
2016-Dec-01 23:28N 46°10' W 123°03'3536.9
2016-Dec-01 22:32N 45°37' W 122°48'354470.8
2016-Dec-01 22:31N 46°10' W 123°03'7101.0
2016-Dec-01 22:27N 46°05' W 122°56'2931.1
2016-Dec-01 21:32N 45°37' W 122°48'29974.0
2016-Dec-01 21:30N 46°05' W 122°56'731.9
2016-Dec-01 21:16N 46°10' W 123°03'3546.7
2016-Dec-01 20:32N 45°37' W 122°48'29160.3
2016-Dec-01 20:21N 46°05' W 122°56'7263.2
2016-Dec-01 20:19N 46°10' W 123°03'0 0.0
2016-Dec-01 19:31N 46°10' W 123°03'7325.7
2016-Dec-01 19:30N 46°05' W 122°56'291358.4
2016-Dec-01 19:29N 45°37' W 122°48'2927.9
2016-Dec-01 18:27N 46°05' W 122°56'291433.9
2016-Dec-01 18:26N 45°37' W 122°48'35610.7
2016-Dec-01 18:22N 46°10' W 123°03'0 0.0
2016-Dec-01 17:31N 46°10' W 123°03'35373.7
2016-Dec-01 17:26N 45°37' W 122°48'29356.0
2016-Dec-01 17:21N 46°05' W 122°56'7 8.8
2016-Dec-01 16:31N 46°10' W 123°03'35807.6
2016-Dec-01 16:29N 45°37' W 122°48'29974.0
2016-Dec-01 16:27N 46°05' W 122°56'7 7.9
2016-Dec-01 15:32N 46°10' W 123°03'3512518.4
2016-Dec-01 15:32N 45°37' W 122°48'29160.3
2016-Dec-01 15:21N 46°05' W 122°56'0 0.0
2016-Dec-01 14:33N 46°05' W 122°56'291433.9
2016-Dec-01 14:32N 45°37' W 122°48'35616.7
2016-Dec-01 14:28N 46°10' W 123°03'7 7.8
2016-Dec-01 13:33N 46°05' W 122°56'7268.6
2016-Dec-01 13:31N 46°10' W 123°03'35787.3
2016-Dec-01 13:29N 45°37' W 122°48'2930.9
2016-Dec-01 12:33N 46°05' W 122°56'291395.1
2016-Dec-01 12:32N 45°37' W 122°48'356954.7
2016-Dec-01 12:31N 46°10' W 123°03'7 7.4
2016-Dec-01 11:33N 46°05' W 122°56'291433.9
2016-Dec-01 11:32N 45°37' W 122°48'356259.2
2016-Dec-01 11:31N 46°10' W 123°03'3535.0
2016-Dec-01 10:32N 45°37' W 122°48'29938.6
2016-Dec-01 10:30N 46°05' W 122°56'7280.2
2016-Dec-01 10:28N 46°10' W 123°03'7 7.8
2016-Dec-01 09:33N 46°05' W 122°56'291496.2
2016-Dec-01 09:32N 45°37' W 122°48'35613.6
2016-Dec-01 09:28N 46°10' W 123°03'3536.8
2016-Dec-01 08:32N 45°37' W 122°48'356259.2
2016-Dec-01 08:31N 46°10' W 123°03'7296.1
2016-Dec-01 08:30N 46°05' W 122°56'2929.6
2016-Dec-01 07:32N 45°37' W 122°48'357824.0
2016-Dec-01 07:31N 46°10' W 123°03'796.5
2016-Dec-01 07:27N 46°05' W 122°56'7 7.8
2016-Dec-01 06:31N 46°10' W 123°03'758.2
2016-Dec-01 06:24N 46°05' W 122°56'29408.1
2016-Dec-01 06:20N 45°37' W 122°48'2936.8
2016-Dec-01 05:33N 46°05' W 122°56'291454.1
2016-Dec-01 05:32N 45°37' W 122°48'35635.5
2016-Dec-01 05:28N 46°10' W 123°03'7 7.8
2016-Dec-01 04:33N 46°05' W 122°56'291433.9
2016-Dec-01 04:32N 45°37' W 122°48'35169.9
2016-Dec-01 04:19N 46°10' W 123°03'3543.7
2016-Dec-01 03:32N 45°37' W 122°48'35642.0
2016-Dec-01 03:28N 46°10' W 123°03'732.1
2016-Dec-01 03:15N 46°05' W 122°56'0 0.0
2016-Dec-01 02:33N 46°05' W 122°56'291433.9
2016-Dec-01 02:32N 45°37' W 122°48'35225.6
2016-Dec-01 02:22N 46°10' W 123°03'3541.2
2016-Dec-01 01:32N 45°37' W 122°48'356588.6
2016-Dec-01 01:31N 46°10' W 123°03'797.2
2016-Dec-01 01:27N 46°05' W 122°56'0 0.0
2016-Dec-01 00:33N 46°05' W 122°56'291414.3
2016-Dec-01 00:32N 45°37' W 122°48'358345.6
2016-Dec-01 00:31N 46°10' W 123°03'0 0.0
2016-Nov-30 23:31N 46°10' W 123°03'35358.7
2016-Nov-30 23:26N 45°37' W 122°48'29361.0
2016-Nov-30 23:21N 46°05' W 122°56'0 0.0
2016-Nov-30 22:33N 46°05' W 122°56'291376.5
2016-Nov-30 22:32N 45°37' W 122°48'35333.8
2016-Nov-30 22:25N 46°10' W 123°03'7 8.3
2016-Nov-30 21:33N 46°05' W 122°56'291496.2
2016-Nov-30 21:32N 45°37' W 122°48'358345.6
2016-Nov-30 21:31N 46°10' W 123°03'3534.9
2016-Nov-30 20:32N 45°37' W 122°48'35655.4
2016-Nov-30 20:28N 46°10' W 123°03'7271.4
2016-Nov-30 20:27N 46°05' W 122°56'0 0.0
2016-Nov-30 19:33N 46°05' W 122°56'797.6
2016-Nov-30 19:28N 46°10' W 123°03'35745.1
2016-Nov-30 19:26N 45°37' W 122°48'3538.5
2016-Nov-30 18:31N 46°10' W 123°03'35745.1
2016-Nov-30 18:29N 45°37' W 122°48'29125.0
2016-Nov-30 18:15N 46°05' W 122°56'710.0
2016-Nov-30 17:31N 46°10' W 123°03'794.1
2016-Nov-30 17:27N 46°05' W 122°56'291433.9
2016-Nov-30 17:26N 45°37' W 122°48'0 0.0
2016-Nov-30 16:32N 45°37' W 122°48'3512518.4
2016-Nov-30 16:31N 46°10' W 123°03'7274.3
2016-Nov-30 16:30N 46°05' W 122°56'7 7.4
2016-Nov-30 15:31N 46°10' W 123°03'794.1
2016-Nov-30 15:27N 46°05' W 122°56'291433.9
2016-Nov-30 15:26N 45°37' W 122°48'2932.6
2016-Nov-30 14:33N 46°05' W 122°56'7296.1
2016-Nov-30 14:31N 46°10' W 123°03'351526.6
2016-Nov-30 14:30N 45°37' W 122°48'0 0.0
2016-Nov-30 13:30N 45°37' W 122°48'351290.6
2016-Nov-30 13:28N 46°10' W 123°03'7268.6
2016-Nov-30 13:27N 46°05' W 122°56'7 7.8
2016-Nov-30 12:31N 46°10' W 123°03'351508.2
2016-Nov-30 12:30N 45°37' W 122°48'297941.6
2016-Nov-30 12:30N 46°05' W 122°56'2930.3
2016-Nov-30 11:33N 45°37' W 122°48'298603.4
2016-Nov-30 11:33N 46°05' W 122°56'7501.1
2016-Nov-30 11:32N 46°10' W 123°03'0 0.0
2016-Nov-30 10:27N 46°10' W 123°03'35224.7
2016-Nov-30 10:18N 45°37' W 122°48'29301.0
2016-Nov-30 10:12N 46°05' W 122°56'2944.0
2016-Nov-30 09:33N 45°37' W 122°48'294301.7
2016-Nov-30 09:33N 46°05' W 122°56'763.6
2016-Nov-30 09:26N 46°10' W 123°03'7 8.2
2016-Nov-30 08:33N 46°05' W 122°56'29629.5
2016-Nov-30 08:30N 45°37' W 122°48'35106.7
2016-Nov-30 08:10N 46°10' W 123°03'711.6
2016-Nov-30 07:33N 46°05' W 122°56'7321.7
2016-Nov-30 07:32N 46°10' W 123°03'351375.6
2016-Nov-30 07:30N 45°37' W 122°48'2930.0
2016-Nov-30 06:33N 46°05' W 122°56'7329.8
2016-Nov-30 06:32N 46°10' W 123°03'351438.9
2016-Nov-30 06:30N 45°37' W 122°48'0 0.0
2016-Nov-30 05:33N 45°37' W 122°48'294916.2
2016-Nov-30 05:33N 46°05' W 122°56'7325.7
2016-Nov-30 05:31N 46°10' W 123°03'3535.7
2016-Nov-30 04:33N 45°37' W 122°48'2910324.1
2016-Nov-30 04:33N 46°05' W 122°56'7321.7
2016-Nov-30 04:32N 46°10' W 123°03'0 0.0
2016-Nov-30 03:29N 46°10' W 123°03'7260.6
2016-Nov-30 03:27N 46°05' W 122°56'29603.7
2016-Nov-30 03:24N 45°37' W 122°48'0 0.0
2016-Nov-30 02:33N 45°37' W 122°48'35275.7
2016-Nov-30 02:26N 46°10' W 123°03'792.4
2016-Nov-30 02:21N 46°05' W 122°56'2933.9
2016-Nov-30 01:30N 45°37' W 122°48'35276.3
2016-Nov-30 01:23N 46°10' W 123°03'7236.9
2016-Nov-30 01:21N 46°05' W 122°56'2936.1
2016-Nov-30 00:33N 45°37' W 122°48'295162.0
2016-Nov-30 00:33N 46°05' W 122°56'7372.2
2016-Nov-30 00:32N 46°10' W 123°03'7 7.4
2016-Nov-29 23:33N 46°05' W 122°56'7367.0
2016-Nov-29 23:32N 46°10' W 123°03'35197.5
2016-Nov-29 23:21N 45°37' W 122°48'2935.7
2016-Nov-29 22:33N 46°05' W 122°56'7325.7
2016-Nov-29 22:32N 46°10' W 123°03'35477.8
2016-Nov-29 22:27N 45°37' W 122°48'0 0.0
2016-Nov-29 21:33N 45°37' W 122°48'2910324.1
2016-Nov-29 21:33N 46°05' W 122°56'7103.4
2016-Nov-29 21:29N 46°10' W 123°03'7 7.8
2016-Nov-29 20:33N 46°05' W 122°56'29618.2
2016-Nov-29 20:30N 45°37' W 122°48'351472.7
2016-Nov-29 20:29N 46°10' W 123°03'7 7.8
2016-Nov-29 19:33N 46°05' W 122°56'29293.3
2016-Nov-29 19:27N 45°37' W 122°48'351564.8
2016-Nov-29 19:26N 46°10' W 123°03'3537.6
2016-Nov-29 18:30N 45°37' W 122°48'35460.2
2016-Nov-29 18:26N 46°10' W 123°03'756.4
2016-Nov-29 18:18N 46°05' W 122°56'7 9.4
2016-Nov-29 17:32N 46°10' W 123°03'351390.9
2016-Nov-29 17:30N 45°37' W 122°48'29540.5
2016-Nov-29 17:27N 46°05' W 122°56'2932.0
2016-Nov-29 16:33N 45°37' W 122°48'2910324.1
2016-Nov-29 16:33N 46°05' W 122°56'7372.2
2016-Nov-29 16:32N 46°10' W 123°03'7 6.7
2016-Nov-29 15:27N 46°05' W 122°56'201201.4
2016-Nov-29 15:26N 46°12' W 123°23'142512.2
2016-Nov-29 15:26N 46°10' W 123°03'351390.9
2016-Nov-29 15:24N 45°37' W 122°48'0 0.0
2016-Nov-29 14:30N 45°37' W 122°48'351508.2
2016-Nov-29 14:29N 46°10' W 123°03'7232.7
2016-Nov-29 14:27N 46°05' W 122°56'2932.0
2016-Nov-29 13:33N 45°37' W 122°48'352318.2
2016-Nov-29 13:32N 46°10' W 123°03'7183.5
2016-Nov-29 13:30N 46°05' W 122°56'7 7.5
2016-Nov-29 12:32N 46°10' W 123°03'351304.0
2016-Nov-29 12:30N 45°37' W 122°48'29529.4
2016-Nov-29 12:27N 46°05' W 122°56'2932.0
2016-Nov-29 11:33N 45°37' W 122°48'35474.2
2016-Nov-29 11:29N 46°10' W 123°03'755.6
2016-Nov-29 11:21N 46°05' W 122°56'2933.9
2016-Nov-29 10:30N 45°37' W 122°48'295735.6
2016-Nov-29 10:30N 46°05' W 122°56'7388.9
2016-Nov-29 10:29N 46°10' W 123°03'0 0.0
2016-Nov-29 09:32N 46°10' W 123°03'351304.0
2016-Nov-29 09:30N 45°37' W 122°48'29529.4
2016-Nov-29 09:27N 46°05' W 122°56'2932.0
2016-Nov-29 08:33N 45°37' W 122°48'2994.2
2016-Nov-29 08:15N 46°05' W 122°56'765.6
2016-Nov-29 08:08N 46°10' W 123°03'3559.4
2016-Nov-29 07:33N 45°37' W 122°48'297941.6
2016-Nov-29 07:33N 46°05' W 122°56'7744.5
2016-Nov-29 07:32N 46°10' W 123°03'3535.3
2016-Nov-29 06:33N 45°37' W 122°48'296882.7
2016-Nov-29 06:33N 46°05' W 122°56'7840.5
2016-Nov-29 06:32N 46°10' W 123°03'3535.2
2016-Nov-29 05:33N 45°37' W 122°48'29276.8
2016-Nov-29 05:27N 46°05' W 122°56'7105.9
2016-Nov-29 05:23N 46°10' W 123°03'3542.1
2016-Nov-29 04:33N 45°37' W 122°48'296882.7
2016-Nov-29 04:33N 46°05' W 122°56'7107.2
2016-Nov-29 04:29N 46°10' W 123°03'7 7.8
2016-Nov-29 03:33N 46°05' W 122°56'7413.6
2016-Nov-29 03:32N 46°10' W 123°03'351215.4
2016-Nov-29 03:30N 45°37' W 122°48'3535.8
2016-Nov-29 02:32N 46°10' W 123°03'351251.8
2016-Nov-29 02:30N 45°37' W 122°48'297374.4
2016-Nov-29 02:30N 46°05' W 122°56'0 0.0
2016-Nov-29 01:33N 46°05' W 122°56'761.2
2016-Nov-29 01:26N 46°10' W 123°03'35447.1
2016-Nov-29 01:21N 45°37' W 122°48'3542.3
2016-Nov-29 00:32N 46°10' W 123°03'786.9
2016-Nov-29 00:27N 46°05' W 122°56'29301.0
2016-Nov-29 00:21N 45°37' W 122°48'3542.3
2016-Nov-28 23:32N 46°10' W 123°03'7217.1
2016-Nov-28 23:30N 46°05' W 122°56'29621.9
2016-Nov-28 23:27N 45°37' W 122°48'2931.7
2016-Nov-28 22:33N 46°05' W 122°56'29621.9
2016-Nov-28 22:30N 45°37' W 122°48'35288.4
2016-Nov-28 22:23N 46°10' W 123°03'7 8.7
2016-Nov-28 21:33N 46°05' W 122°56'7407.1
2016-Nov-28 21:32N 46°10' W 123°03'351215.4
2016-Nov-28 21:30N 45°37' W 122°48'3535.8
2016-Nov-28 20:32N 46°10' W 123°03'35268.1
2016-Nov-28 20:24N 45°37' W 122°48'29277.5
2016-Nov-28 20:18N 46°05' W 122°56'0 0.0
2016-Nov-28 19:33N 46°05' W 122°56'7457.1
2016-Nov-28 19:32N 46°10' W 123°03'351127.8
2016-Nov-28 19:30N 45°37' W 122°48'0 0.0
2016-Nov-28 18:33N 45°37' W 122°48'29534.9
2016-Nov-28 18:30N 46°05' W 122°56'7457.1
2016-Nov-28 18:29N 46°10' W 123°03'3537.4
2016-Nov-28 17:33N 45°37' W 122°48'35489.0
2016-Nov-28 17:29N 46°10' W 123°03'754.2
2016-Nov-28 17:21N 46°05' W 122°56'7 8.9
2016-Nov-28 16:32N 46°10' W 123°03'7210.1
2016-Nov-28 16:30N 46°05' W 122°56'29629.5
2016-Nov-28 16:27N 45°37' W 122°48'2931.7
2016-Nov-28 15:33N 46°05' W 122°56'7482.5
2016-Nov-28 15:32N 46°10' W 123°03'351148.5
2016-Nov-28 15:30N 45°37' W 122°48'0 0.0
2016-Nov-28 14:33N 45°37' W 122°48'296073.0
2016-Nov-28 14:33N 46°05' W 122°56'7473.8
2016-Nov-28 14:32N 46°10' W 123°03'3535.5
2016-Nov-28 13:33N 45°37' W 122°48'295735.6
2016-Nov-28 13:33N 46°05' W 122°56'7501.1
2016-Nov-28 13:32N 46°10' W 123°03'0 0.0
2016-Nov-28 12:32N 46°10' W 123°03'7213.6
2016-Nov-28 12:30N 46°05' W 122°56'29603.7
2016-Nov-28 12:27N 45°37' W 122°48'3535.9
2016-Nov-28 11:29N 46°10' W 123°03'7206.8
2016-Nov-28 11:27N 46°05' W 122°56'29633.4
2016-Nov-28 11:24N 45°37' W 122°48'0 0.0
2016-Nov-28 10:30N 45°37' W 122°48'297374.4
2016-Nov-28 10:30N 46°05' W 122°56'733.6
2016-Nov-28 10:17N 46°10' W 123°03'7 9.9
2016-Nov-28 09:33N 46°05' W 122°56'29625.7
2016-Nov-28 09:30N 45°37' W 122°48'351814.3
2016-Nov-28 09:29N 46°10' W 123°03'3537.4
2016-Nov-28 08:33N 45°37' W 122°48'296073.0
2016-Nov-28 08:33N 46°05' W 122°56'7111.4
2016-Nov-28 08:29N 46°10' W 123°03'7 7.7
2016-Nov-28 07:33N 46°05' W 122°56'29637.3
2016-Nov-28 07:30N 45°37' W 122°48'351763.2
2016-Nov-28 07:29N 46°10' W 123°03'0 0.0
2016-Nov-28 06:32N 46°10' W 123°03'351069.9
2016-Nov-28 06:30N 45°37' W 122°48'297941.6
2016-Nov-28 06:30N 46°05' W 122°56'2930.3
2016-Nov-28 05:33N 45°37' W 122°48'296452.6
2016-Nov-28 05:33N 46°05' W 122°56'7521.1
2016-Nov-28 05:32N 46°10' W 123°03'3535.4
2016-Nov-28 04:33N 45°37' W 122°48'299385.5
2016-Nov-28 04:33N 46°05' W 122°56'7491.6
2016-Nov-28 04:32N 46°10' W 123°03'3533.7
2016-Nov-28 03:30N 45°37' W 122°48'351925.9
2016-Nov-28 03:29N 46°10' W 123°03'7203.6
2016-Nov-28 03:27N 46°05' W 122°56'0 0.0
2016-Nov-28 02:33N 46°05' W 122°56'7531.8
2016-Nov-28 02:32N 46°10' W 123°03'35262.4
2016-Nov-28 02:24N 45°37' W 122°48'2933.6
2016-Nov-28 01:33N 46°05' W 122°56'7531.8
2016-Nov-28 01:32N 46°10' W 123°03'351079.2
2016-Nov-28 01:30N 45°37' W 122°48'2930.1
2016-Nov-28 00:33N 46°05' W 122°56'7566.5
2016-Nov-28 00:32N 46°10' W 123°03'351052.0
2016-Nov-28 00:30N 45°37' W 122°48'0 0.0
2016-Nov-27 23:30N 45°37' W 122°48'296073.0
2016-Nov-27 23:30N 46°05' W 122°56'744.3
2016-Nov-27 23:20N 46°10' W 123°03'3544.5
2016-Nov-27 22:33N 45°37' W 122°48'296073.0
2016-Nov-27 22:33N 46°05' W 122°56'744.3
2016-Nov-27 22:23N 46°10' W 123°03'7 8.7
2016-Nov-27 21:33N 46°05' W 122°56'29625.7
2016-Nov-27 21:30N 45°37' W 122°48'35523.8
2016-Nov-27 21:26N 46°10' W 123°03'3539.4
2016-Nov-27 20:33N 45°37' W 122°48'296073.0
2016-Nov-27 20:33N 46°05' W 122°56'764.8
2016-Nov-27 20:26N 46°10' W 123°03'0 0.0
2016-Nov-27 19:32N 46°10' W 123°03'351026.1
2016-Nov-27 19:30N 45°37' W 122°48'29526.7
2016-Nov-27 19:27N 46°05' W 122°56'2930.3
2016-Nov-27 18:30N 45°37' W 122°48'296452.6
2016-Nov-27 18:30N 46°05' W 122°56'7542.9
2016-Nov-27 18:29N 46°10' W 123°03'7 7.7
2016-Nov-27 17:33N 46°05' W 122°56'29637.3
2016-Nov-27 17:30N 45°37' W 122°48'35112.7
2016-Nov-27 17:12N 46°10' W 123°03'0 0.0
2016-Nov-27 16:33N 46°10' W 123°03'774.9
2016-Nov-27 16:27N 46°05' W 122°56'29625.7
2016-Nov-27 16:24N 45°37' W 122°48'0 0.0
2016-Nov-27 15:33N 45°37' W 122°48'296073.0
2016-Nov-27 15:33N 46°05' W 122°56'71861.2
2016-Nov-27 15:33N 46°10' W 123°03'3535.1
2016-Nov-27 14:33N 45°37' W 122°48'297941.6
2016-Nov-27 14:33N 46°05' W 122°56'71628.6
2016-Nov-27 14:33N 46°10' W 123°03'3535.1
2016-Nov-27 13:33N 45°37' W 122°48'297941.6
2016-Nov-27 13:33N 46°05' W 122°56'71628.6
2016-Nov-27 13:33N 46°10' W 123°03'7 7.3
2016-Nov-27 12:33N 46°05' W 122°56'7566.5
2016-Nov-27 12:32N 46°10' W 123°03'35421.5
2016-Nov-27 12:27N 45°37' W 122°48'0 0.0
2016-Nov-27 11:33N 45°37' W 122°48'297374.4
2016-Nov-27 11:33N 46°05' W 122°56'7592.2
2016-Nov-27 11:32N 46°10' W 123°03'3535.3
2016-Nov-27 10:33N 45°37' W 122°48'297941.6
2016-Nov-27 10:33N 46°05' W 122°56'744.9
2016-Nov-27 10:23N 46°10' W 123°03'3541.7
2016-Nov-27 09:33N 45°37' W 122°48'296452.6
2016-Nov-27 09:33N 46°05' W 122°56'760.7
2016-Nov-27 09:26N 46°10' W 123°03'3537.5
2016-Nov-27 08:30N 45°37' W 122°48'351508.2
2016-Nov-27 08:29N 46°10' W 123°03'7230.6
2016-Nov-27 08:27N 46°05' W 122°56'7 7.9
2016-Nov-27 07:32N 46°10' W 123°03'351331.7
2016-Nov-27 07:30N 45°37' W 122°48'2911471.2
2016-Nov-27 07:30N 46°05' W 122°56'0 0.0
2016-Nov-27 06:33N 46°05' W 122°56'7372.2
2016-Nov-27 06:32N 46°10' W 123°03'351251.8
2016-Nov-27 06:30N 45°37' W 122°48'3535.7
2016-Nov-27 05:32N 46°10' W 123°03'351317.7
2016-Nov-27 05:30N 45°37' W 122°48'298603.4
2016-Nov-27 05:30N 46°05' W 122°56'7 7.5
2016-Nov-27 04:32N 46°10' W 123°03'35985.7
2016-Nov-27 04:30N 45°37' W 122°48'29277.5
2016-Nov-27 04:24N 46°05' W 122°56'7 8.4
2016-Nov-27 03:32N 46°10' W 123°03'35970.4
2016-Nov-27 03:30N 45°37' W 122°48'296452.6
2016-Nov-27 03:30N 46°05' W 122°56'0 0.0
2016-Nov-27 02:33N 46°05' W 122°56'761.5
2016-Nov-27 02:26N 46°10' W 123°03'351251.8
2016-Nov-27 02:24N 45°37' W 122°48'0 0.0
2016-Nov-27 01:33N 45°37' W 122°48'296882.7
2016-Nov-27 01:33N 46°05' W 122°56'761.0
2016-Nov-27 01:26N 46°10' W 123°03'3537.5
2016-Nov-27 00:30N 45°37' W 122°48'35479.6
2016-Nov-27 00:26N 46°10' W 123°03'787.7
2016-Nov-27 00:21N 46°05' W 122°56'2936.1
2016-Nov-26 23:33N 45°37' W 122°48'299385.5
2016-Nov-26 23:33N 46°05' W 122°56'7372.2
2016-Nov-26 23:32N 46°10' W 123°03'3535.6
2016-Nov-26 22:33N 45°37' W 122°48'296882.7
2016-Nov-26 22:33N 46°05' W 122°56'743.3
2016-Nov-26 22:23N 46°10' W 123°03'7 8.7
2016-Nov-26 21:33N 46°05' W 122°56'7106.4
2016-Nov-26 21:29N 46°10' W 123°03'351251.8
2016-Nov-26 21:27N 45°37' W 122°48'0 0.0
2016-Nov-26 20:33N 45°37' W 122°48'299385.5
2016-Nov-26 20:33N 46°05' W 122°56'761.6
2016-Nov-26 20:26N 46°10' W 123°03'0 0.0
2016-Nov-26 19:32N 46°10' W 123°03'351215.4
2016-Nov-26 19:30N 45°37' W 122°48'297941.6
2016-Nov-26 19:30N 46°05' W 122°56'7 7.5
2016-Nov-26 18:32N 46°10' W 123°03'7230.6
2016-Nov-26 18:30N 46°05' W 122°56'29146.9
2016-Nov-26 18:18N 45°37' W 122°48'0 0.0
2016-Nov-26 17:33N 45°37' W 122°48'296882.7
2016-Nov-26 17:33N 46°05' W 122°56'7420.3
2016-Nov-26 17:32N 46°10' W 123°03'7 7.4
2016-Nov-26 16:33N 46°05' W 122°56'7449.3
2016-Nov-26 16:32N 46°10' W 123°03'351192.2
2016-Nov-26 16:30N 45°37' W 122°48'0 0.0
2016-Nov-26 15:33N 45°37' W 122°48'29532.2
2016-Nov-26 15:30N 46°05' W 122°56'7108.1
2016-Nov-26 15:26N 46°10' W 123°03'3539.6
2016-Nov-26 14:33N 45°37' W 122°48'29276.0
2016-Nov-26 14:27N 46°05' W 122°56'762.2
2016-Nov-26 14:20N 46°10' W 123°03'7 9.2
2016-Nov-26 13:33N 46°05' W 122°56'29618.2
2016-Nov-26 13:30N 45°37' W 122°48'351714.8
2016-Nov-26 13:29N 46°10' W 123°03'7 7.7
2016-Nov-26 12:33N 46°05' W 122°56'7457.1
2016-Nov-26 12:32N 46°10' W 123°03'35437.7
2016-Nov-26 12:27N 45°37' W 122°48'0 0.0
2016-Nov-26 11:33N 45°37' W 122°48'358345.6
2016-Nov-26 11:33N 46°10' W 123°03'736.2
2016-Nov-26 11:21N 46°05' W 122°56'2936.0
2016-Nov-26 10:33N 45°37' W 122°48'297374.4
2016-Nov-26 10:33N 46°05' W 122°56'7145.6
2016-Nov-26 10:30N 46°10' W 123°03'0 0.0
2016-Nov-26 09:33N 46°10' W 123°03'713028.5
2016-Nov-26 09:33N 46°05' W 122°56'29614.5
2016-Nov-26 09:30N 45°37' W 122°48'2930.1
2016-Nov-26 08:33N 46°05' W 122°56'29196.3
2016-Nov-26 08:24N 45°37' W 122°48'358941.7
2016-Nov-26 08:24N 46°10' W 123°03'0 0.0
2016-Nov-26 07:33N 46°10' W 123°03'35740.7
2016-Nov-26 07:30N 45°37' W 122°48'297374.4
2016-Nov-26 07:30N 46°05' W 122°56'2930.3
2016-Nov-26 06:33N 45°37' W 122°48'297941.6
2016-Nov-26 06:33N 46°05' W 122°56'748.3
2016-Nov-26 06:24N 46°10' W 123°03'3541.1
2016-Nov-26 05:33N 45°37' W 122°48'29274.6
2016-Nov-26 05:27N 46°05' W 122°56'773.6
2016-Nov-26 05:21N 46°10' W 123°03'14823.7
2016-Nov-26 05:20N 46°12' W 123°23'2026.0
2016-Nov-26 04:33N 46°05' W 122°56'29625.7
2016-Nov-26 04:30N 45°37' W 122°48'3510432.0
2016-Nov-26 04:30N 46°10' W 123°03'1483.7
2016-Nov-26 04:20N 46°12' W 123°23'2026.0
2016-Nov-26 03:33N 46°05' W 122°56'201285.8
2016-Nov-26 03:32N 46°12' W 123°23'431429.5
2016-Nov-26 03:30N 45°37' W 122°48'35662.3
2016-Nov-26 03:27N 46°10' W 123°03'0 0.0
2016-Nov-26 02:33N 46°10' W 123°03'73722.4
2016-Nov-26 02:33N 46°05' W 122°56'29637.3
2016-Nov-26 02:30N 45°37' W 122°48'0 0.0
2016-Nov-26 01:33N 45°37' W 122°48'297374.4
2016-Nov-26 01:33N 46°05' W 122°56'7150.6
2016-Nov-26 01:30N 46°10' W 123°03'3536.7
2016-Nov-26 00:33N 45°37' W 122°48'296882.7
2016-Nov-26 00:33N 46°05' W 122°56'767.9
2016-Nov-26 00:26N 46°10' W 123°03'7 8.1
2016-Nov-25 23:33N 46°05' W 122°56'7501.1
2016-Nov-25 23:32N 46°10' W 123°03'351127.8
2016-Nov-25 23:30N 45°37' W 122°48'0 0.0
2016-Nov-25 22:33N 45°37' W 122°48'296882.7
2016-Nov-25 22:33N 46°05' W 122°56'7491.6
2016-Nov-25 22:32N 46°10' W 123°03'7 7.3
2016-Nov-25 21:33N 46°05' W 122°56'29629.5
2016-Nov-25 21:30N 45°37' W 122°48'351868.4
2016-Nov-25 21:29N 46°10' W 123°03'0 0.0
2016-Nov-25 20:32N 46°10' W 123°03'7206.8
2016-Nov-25 20:30N 46°05' W 122°56'29300.1
2016-Nov-25 20:24N 45°37' W 122°48'0 0.0
2016-Nov-25 19:30N 45°37' W 122°48'296073.0
2016-Nov-25 19:30N 46°05' W 122°56'7531.8
2016-Nov-25 19:29N 46°10' W 123°03'0 0.0
2016-Nov-25 18:32N 46°10' W 123°03'351107.8
2016-Nov-25 18:30N 45°37' W 122°48'29529.4
2016-Nov-25 18:27N 46°05' W 122°56'2932.0
2016-Nov-25 17:33N 45°37' W 122°48'296882.7
2016-Nov-25 17:33N 46°05' W 122°56'7510.9
2016-Nov-25 17:32N 46°10' W 123°03'7 7.3
2016-Nov-25 16:33N 46°05' W 122°56'  
Track history (hours):
 
Tides and Currents Weather Stations Pressure Air Temp Water Temp Dewpoint Dewpoint Depression Visibility Wind Speed Wind Dir Waves Ship Positions

Zarling

Owner: Clean Rivers Co-op, Portland, OR. More information available from US FCC via Universal Licensing System.

Last reported at 2016-Dec-05 16:31 UTC. Time now 2016-Dec-05 16:42 UTC.
Position N 46°10' W 123°03'.

Length 12 m.

Type: Pollution control. MMSI: 3699126.

Date/timePositionNaut miles runAvg speedWind from/ knotsBaromVisibWave heightAir tempDewpointWater temp
2016-Dec-05 16:31N 46°10' W 123°03'352911.2
2016-Dec-05 16:30N 45°37' W 122°48'295735.6
2016-Dec-05 16:30N 46°05' W 122°56'2929.5
2016-Dec-05 15:32N 45°37' W 122°48'353294.3
2016-Dec-05 15:31N 46°10' W 123°03'7388.9
2016-Dec-05 15:30N 46°05' W 122°56'20177.4
2016-Dec-05 15:23N 46°12' W 123°23'0 0.0
2016-Dec-05 14:32N 46°12' W 123°23'437350.8
2016-Dec-05 14:32N 45°37' W 122°48'35576.9
2016-Dec-05 14:28N 46°10' W 123°03'7103.8
2016-Dec-05 14:24N 46°05' W 122°56'0 0.0
2016-Dec-05 13:33N 46°05' W 122°56'201437.0
2016-Dec-05 13:32N 46°12' W 123°23'437350.8
2016-Dec-05 13:32N 45°37' W 122°48'352911.2
2016-Dec-05 13:31N 46°10' W 123°03'7 7.5
2016-Dec-05 12:33N 46°05' W 122°56'29403.3
2016-Dec-05 12:29N 45°37' W 122°48'35563.9
2016-Dec-05 12:25N 46°10' W 123°03'14436.9
2016-Dec-05 12:23N 46°12' W 123°23'2024.3
2016-Dec-05 11:33N 46°05' W 122°56'7234.7
2016-Dec-05 11:31N 46°10' W 123°03'35894.2
2016-Dec-05 11:29N 45°37' W 122°48'43970.9
2016-Dec-05 11:26N 46°12' W 123°23'0 0.0
2016-Dec-05 10:32N 46°12' W 123°23'437350.8
2016-Dec-05 10:32N 45°37' W 122°48'353129.6
2016-Dec-05 10:31N 46°10' W 123°03'7106.8
2016-Dec-05 10:27N 46°05' W 122°56'0 0.0
2016-Dec-05 09:33N 46°05' W 122°56'201437.0
2016-Dec-05 09:32N 46°12' W 123°23'436711.6
2016-Dec-05 09:32N 45°37' W 122°48'35574.2
2016-Dec-05 09:28N 46°10' W 123°03'7 7.9
2016-Dec-05 08:33N 46°05' W 122°56'291358.4
2016-Dec-05 08:32N 45°37' W 122°48'353294.3
2016-Dec-05 08:31N 46°10' W 123°03'1449.3
2016-Dec-05 08:14N 46°12' W 123°23'0 0.0
2016-Dec-05 07:32N 46°12' W 123°23'437718.4
2016-Dec-05 07:32N 45°37' W 122°48'353209.8
2016-Dec-05 07:31N 46°10' W 123°03'7383.2
2016-Dec-05 07:30N 46°05' W 122°56'0 0.0
2016-Dec-05 06:33N 46°05' W 122°56'291395.1
2016-Dec-05 06:32N 45°37' W 122°48'353209.8
2016-Dec-05 06:31N 46°10' W 123°03'1476.1
2016-Dec-05 06:20N 46°12' W 123°23'2025.9
2016-Dec-05 05:33N 46°05' W 122°56'201332.5
2016-Dec-05 05:32N 46°12' W 123°23'437718.4
2016-Dec-05 05:32N 45°37' W 122°48'353294.3
2016-Dec-05 05:31N 46°10' W 123°03'3535.3
2016-Dec-05 04:32N 45°37' W 122°48'352196.2
2016-Dec-05 04:31N 46°10' W 123°03'7105.1
2016-Dec-05 04:27N 46°05' W 122°56'2929.5
2016-Dec-05 03:29N 45°37' W 122°48'29222.5
2016-Dec-05 03:21N 46°05' W 122°56'7232.7
2016-Dec-05 03:19N 46°10' W 123°03'7 9.4
2016-Dec-05 02:33N 46°05' W 122°56'291376.5
2016-Dec-05 02:32N 45°37' W 122°48'353681.9
2016-Dec-05 02:31N 46°10' W 123°03'0 0.0
2016-Dec-05 01:31N 46°10' W 123°03'7104.2
2016-Dec-05 01:27N 46°05' W 122°56'291395.1
2016-Dec-05 01:26N 45°37' W 122°48'2932.6
2016-Dec-05 00:33N 46°05' W 122°56'291496.2
2016-Dec-05 00:32N 45°37' W 122°48'35571.6
2016-Dec-05 00:28N 46°10' W 123°03'7 7.9
2016-Dec-04 23:33N 46°05' W 122°56'291376.5
2016-Dec-04 23:32N 45°37' W 122°48'353477.3
2016-Dec-04 23:31N 46°10' W 123°03'3535.1
2016-Dec-04 22:32N 45°37' W 122°48'35320.2
2016-Dec-04 22:25N 46°10' W 123°03'7101.4
2016-Dec-04 22:21N 46°05' W 122°56'0 0.0
2016-Dec-04 21:30N 46°05' W 122°56'7245.8
2016-Dec-04 21:28N 46°10' W 123°03'35851.6
2016-Dec-04 21:26N 45°37' W 122°48'3538.3
2016-Dec-04 20:31N 46°10' W 123°03'7342.9
2016-Dec-04 20:30N 46°05' W 122°56'29414.6
2016-Dec-04 20:26N 45°37' W 122°48'0 0.0
2016-Dec-04 19:32N 45°37' W 122°48'352980.6
2016-Dec-04 19:31N 46°10' W 123°03'7103.0
2016-Dec-04 19:27N 46°05' W 122°56'2931.2
2016-Dec-04 18:32N 45°37' W 122°48'353912.0
2016-Dec-04 18:31N 46°10' W 123°03'7356.9
2016-Dec-04 18:30N 46°05' W 122°56'0 0.0
2016-Dec-04 17:33N 46°05' W 122°56'7248.2
2016-Dec-04 17:31N 46°10' W 123°03'35823.6
2016-Dec-04 17:29N 45°37' W 122°48'0 0.0
2016-Dec-04 16:32N 45°37' W 122°48'354038.2
2016-Dec-04 16:31N 46°10' W 123°03'7103.4
2016-Dec-04 16:27N 46°05' W 122°56'0 0.0
2016-Dec-04 15:33N 46°05' W 122°56'7248.2
2016-Dec-04 15:31N 46°10' W 123°03'35245.5
2016-Dec-04 15:23N 45°37' W 122°48'2934.6
2016-Dec-04 14:33N 46°05' W 122°56'291454.1
2016-Dec-04 14:32N 45°37' W 122°48'353912.0
2016-Dec-04 14:31N 46°10' W 123°03'7 7.5
2016-Dec-04 13:33N 46°05' W 122°56'7255.5
2016-Dec-04 13:31N 46°10' W 123°03'35823.6
2016-Dec-04 13:29N 45°37' W 122°48'2930.8
2016-Dec-04 12:33N 46°05' W 122°56'291395.1
2016-Dec-04 12:32N 45°37' W 122°48'35322.6
2016-Dec-04 12:25N 46°10' W 123°03'7 8.3
2016-Dec-04 11:33N 46°05' W 122°56'291376.5
2016-Dec-04 11:32N 45°37' W 122°48'354316.7
2016-Dec-04 11:31N 46°10' W 123°03'7 7.5
2016-Dec-04 10:33N 46°05' W 122°56'29406.5
2016-Dec-04 10:29N 45°37' W 122°48'354470.8
2016-Dec-04 10:28N 46°10' W 123°03'7 7.9
2016-Dec-04 09:33N 46°05' W 122°56'29409.7
2016-Dec-04 09:29N 45°37' W 122°48'35321.8
2016-Dec-04 09:22N 46°10' W 123°03'7 8.8
2016-Dec-04 08:33N 46°05' W 122°56'291358.4
2016-Dec-04 08:32N 45°37' W 122°48'355961.1
2016-Dec-04 08:31N 46°10' W 123°03'3535.0
2016-Dec-04 07:32N 45°37' W 122°48'354636.4
2016-Dec-04 07:31N 46°10' W 123°03'7325.7
2016-Dec-04 07:30N 46°05' W 122°56'0 0.0
2016-Dec-04 06:33N 46°05' W 122°56'291358.4
2016-Dec-04 06:32N 45°37' W 122°48'35610.7
2016-Dec-04 06:28N 46°10' W 123°03'7 7.9
2016-Dec-04 05:33N 46°05' W 122°56'291376.5
2016-Dec-04 05:32N 45°37' W 122°48'355216.0
2016-Dec-04 05:31N 46°10' W 123°03'7 7.4
2016-Dec-04 04:33N 46°05' W 122°56'291395.1
2016-Dec-04 04:32N 45°37' W 122°48'35222.4
2016-Dec-04 04:22N 46°10' W 123°03'7 8.8
2016-Dec-04 03:33N 46°05' W 122°56'291414.3
2016-Dec-04 03:32N 45°37' W 122°48'355007.3
2016-Dec-04 03:31N 46°10' W 123°03'7 7.4
2016-Dec-04 02:33N 46°05' W 122°56'291395.1
2016-Dec-04 02:32N 45°37' W 122°48'355216.0
2016-Dec-04 02:31N 46°10' W 123°03'7 7.1
2016-Dec-04 01:30N 46°05' W 122°56'7265.9
2016-Dec-04 01:28N 46°10' W 123°03'35179.9
2016-Dec-04 01:17N 45°37' W 122°48'2939.3
2016-Dec-04 00:33N 46°05' W 122°56'291474.9
2016-Dec-04 00:32N 45°37' W 122°48'354814.8
2016-Dec-04 00:31N 46°10' W 123°03'7 7.4
2016-Dec-03 23:33N 46°05' W 122°56'7260.6
2016-Dec-03 23:31N 46°10' W 123°03'35143.1
2016-Dec-03 23:17N 45°37' W 122°48'2939.3
2016-Dec-03 22:33N 46°05' W 122°56'29239.5
2016-Dec-03 22:26N 45°37' W 122°48'355690.2
2016-Dec-03 22:25N 46°10' W 123°03'7 8.3
2016-Dec-03 21:33N 46°05' W 122°56'291433.9
2016-Dec-03 21:32N 45°37' W 122°48'355442.8
2016-Dec-03 21:31N 46°10' W 123°03'7 7.4
2016-Dec-03 20:33N 46°05' W 122°56'291376.5
2016-Dec-03 20:32N 45°37' W 122°48'35329.4
2016-Dec-03 20:25N 46°10' W 123°03'7 8.3
2016-Dec-03 19:33N 46°05' W 122°56'291414.3
2016-Dec-03 19:32N 45°37' W 122°48'358345.6
2016-Dec-03 19:31N 46°10' W 123°03'7 6.7
2016-Dec-03 18:26N 46°05' W 122°56'292716.9
2016-Dec-03 18:26N 45°37' W 122°48'35113.9
2016-Dec-03 18:07N 46°10' W 123°03'712.6
2016-Dec-03 17:33N 46°05' W 122°56'741.2
2016-Dec-03 17:22N 46°10' W 123°03'35777.5
2016-Dec-03 17:20N 45°37' W 122°48'2936.8
2016-Dec-03 16:33N 46°05' W 122°56'29404.9
2016-Dec-03 16:29N 45°37' W 122°48'35632.2
2016-Dec-03 16:25N 46°10' W 123°03'3540.2
2016-Dec-03 15:33N 45°37' W 122°48'293226.3
2016-Dec-03 15:33N 46°05' W 122°56'7289.5
2016-Dec-03 15:31N 46°10' W 123°03'7 7.4
2016-Dec-03 14:33N 46°05' W 122°56'293687.2
2016-Dec-03 14:32N 45°37' W 122°48'352121.8
2016-Dec-03 14:31N 46°10' W 123°03'0 0.0
2016-Dec-03 13:32N 46°10' W 123°03'356588.6
2016-Dec-03 13:32N 45°37' W 122°48'29394.0
2016-Dec-03 13:27N 46°05' W 122°56'0 0.0
2016-Dec-03 12:33N 46°05' W 122°56'291395.1
2016-Dec-03 12:32N 45°37' W 122°48'357824.0
2016-Dec-03 12:31N 46°10' W 123°03'7 7.4
2016-Dec-03 11:33N 46°05' W 122°56'291433.9
2016-Dec-03 11:32N 45°37' W 122°48'356259.2
2016-Dec-03 11:31N 46°10' W 123°03'3534.9
2016-Dec-03 10:32N 45°37' W 122°48'357824.0
2016-Dec-03 10:31N 46°10' W 123°03'726.3
2016-Dec-03 10:15N 46°05' W 122°56'0 0.0
2016-Dec-03 09:33N 46°05' W 122°56'7296.1
2016-Dec-03 09:31N 46°10' W 123°03'35745.1
2016-Dec-03 09:29N 45°37' W 122°48'0 0.0
2016-Dec-03 08:32N 45°37' W 122°48'3510432.0
2016-Dec-03 08:31N 46°10' W 123°03'795.4
2016-Dec-03 08:27N 46°05' W 122°56'2931.1
2016-Dec-03 07:32N 45°37' W 122°48'3511380.3
2016-Dec-03 07:31N 46°10' W 123°03'794.4
2016-Dec-03 07:27N 46°05' W 122°56'2931.2
2016-Dec-03 06:32N 45°37' W 122°48'358345.6
2016-Dec-03 06:31N 46°10' W 123°03'7283.2
2016-Dec-03 06:30N 46°05' W 122°56'0 0.0
2016-Dec-03 05:33N 46°05' W 122°56'291433.9
2016-Dec-03 05:32N 45°37' W 122°48'358941.7
2016-Dec-03 05:31N 46°10' W 123°03'0 0.0
2016-Dec-03 04:31N 46°10' W 123°03'794.8
2016-Dec-03 04:27N 46°05' W 122°56'291433.9
2016-Dec-03 04:26N 45°37' W 122°48'2932.6
2016-Dec-03 03:33N 46°05' W 122°56'291358.4
2016-Dec-03 03:32N 45°37' W 122°48'3511380.3
2016-Dec-03 03:31N 46°10' W 123°03'7 7.4
2016-Dec-03 02:33N 46°05' W 122°56'798.3
2016-Dec-03 02:28N 46°10' W 123°03'35359.7
2016-Dec-03 02:23N 45°37' W 122°48'0 0.0
2016-Dec-03 01:32N 45°37' W 122°48'29357.2
2016-Dec-03 01:27N 46°05' W 122°56'759.1
2016-Dec-03 01:19N 46°10' W 123°03'3543.6
2016-Dec-03 00:32N 45°37' W 122°48'3513909.3
2016-Dec-03 00:31N 46°10' W 123°03'794.4
2016-Dec-03 00:27N 46°05' W 122°56'2094.8
2016-Dec-03 00:14N 46°12' W 123°23'4360.7
2016-Dec-02 23:32N 45°37' W 122°48'35343.9
2016-Dec-02 23:26N 46°10' W 123°03'740.5
2016-Dec-02 23:15N 46°05' W 122°56'0 0.0
2016-Dec-02 22:33N 46°05' W 122°56'291540.9
2016-Dec-02 22:32N 45°37' W 122°48'359629.5
2016-Dec-02 22:31N 46°10' W 123°03'0 0.0
2016-Dec-02 21:31N 46°10' W 123°03'7253.0
2016-Dec-02 21:30N 46°05' W 122°56'291474.9
2016-Dec-02 21:29N 45°37' W 122°48'2930.8
2016-Dec-02 20:33N 46°05' W 122°56'291414.3
2016-Dec-02 20:32N 45°37' W 122°48'3517883.4
2016-Dec-02 20:31N 46°10' W 123°03'3534.8
2016-Dec-02 19:32N 45°37' W 122°48'35137.9
2016-Dec-02 19:16N 46°10' W 123°03'756.8
2016-Dec-02 19:09N 46°05' W 122°56'711.6
2016-Dec-02 18:31N 46°10' W 123°03'35736.4
2016-Dec-02 18:29N 45°37' W 122°48'29124.4
2016-Dec-02 18:15N 46°05' W 122°56'0 0.0
2016-Dec-02 17:33N 46°05' W 122°56'7347.4
2016-Dec-02 17:32N 46°10' W 123°03'35707.3
2016-Dec-02 17:29N 45°37' W 122°48'3536.5
2016-Dec-02 16:31N 46°10' W 123°03'35715.3
2016-Dec-02 16:29N 45°37' W 122°48'29361.0
2016-Dec-02 16:24N 46°05' W 122°56'2932.9
2016-Dec-02 15:32N 45°37' W 122°48'35680.3
2016-Dec-02 15:29N 46°10' W 123°03'7292.8
2016-Dec-02 15:27N 46°05' W 122°56'0 0.0
2016-Dec-02 14:33N 46°05' W 122°56'291414.3
2016-Dec-02 14:32N 45°37' W 122°48'3525036.7
2016-Dec-02 14:32N 46°10' W 123°03'3534.8
2016-Dec-02 13:32N 45°37' W 122°48'3520864.0
2016-Dec-02 13:31N 46°10' W 123°03'792.7
2016-Dec-02 13:27N 46°05' W 122°56'0 0.0
2016-Dec-02 12:33N 46°05' W 122°56'291395.1
2016-Dec-02 12:32N 45°37' W 122°48'3525036.7
2016-Dec-02 12:32N 46°10' W 123°03'7 7.4
2016-Dec-02 11:33N 46°05' W 122°56'291433.9
2016-Dec-02 11:32N 45°37' W 122°48'3517883.4
2016-Dec-02 11:32N 46°10' W 123°03'3534.8
2016-Dec-02 10:32N 45°37' W 122°48'29974.0
2016-Dec-02 10:30N 46°05' W 122°56'7102.2
2016-Dec-02 10:26N 46°10' W 123°03'3534.8
2016-Dec-02 09:26N 45°37' W 122°48'3562591.9
2016-Dec-02 09:26N 46°10' W 123°03'7245.8
2016-Dec-02 09:24N 46°05' W 122°56'0 0.0
2016-Dec-02 08:15N 46°05' W 122°56'291414.3
2016-Dec-02 08:14N 45°37' W 122°48'3562591.9
2016-Dec-02 08:14N 46°10' W 123°03'710.7
2016-Dec-02 07:33N 46°05' W 122°56'291474.9
2016-Dec-02 07:32N 45°37' W 122°48'35375.9
2016-Dec-02 07:26N 46°10' W 123°03'0 0.0
2016-Dec-02 06:29N 46°10' W 123°03'35326.9
2016-Dec-02 06:23N 45°37' W 122°48'29353.6
2016-Dec-02 06:18N 46°05' W 122°56'0 0.0
2016-Dec-02 05:33N 46°05' W 122°56'291358.4
2016-Dec-02 05:32N 45°37' W 122°48'35125183.7
2016-Dec-02 05:32N 46°10' W 123°03'7 7.4
2016-Dec-02 04:33N 46°05' W 122°56'7361.9
2016-Dec-02 04:32N 46°10' W 123°03'3541727.9
2016-Dec-02 04:32N 45°37' W 122°48'2929.3
2016-Dec-02 03:33N 46°05' W 122°56'7356.9
2016-Dec-02 03:32N 46°10' W 123°03'3531295.9
2016-Dec-02 03:32N 45°37' W 122°48'3534.8
2016-Dec-02 02:32N 46°10' W 123°03'7239.1
2016-Dec-02 02:30N 46°05' W 122°56'291433.9
2016-Dec-02 02:29N 45°37' W 122°48'2930.8
2016-Dec-02 01:33N 46°05' W 122°56'7372.2
2016-Dec-02 01:32N 46°10' W 123°03'3541727.9
2016-Dec-02 01:32N 45°37' W 122°48'2925.4
2016-Dec-02 00:24N 46°05' W 122°56'7263.2
2016-Dec-02 00:22N 46°10' W 123°03'35807.6
2016-Dec-02 00:20N 45°37' W 122°48'2936.8
2016-Dec-01 23:33N 46°05' W 122°56'291518.2
2016-Dec-01 23:32N 45°37' W 122°48'35593.3
2016-Dec-01 23:28N 46°10' W 123°03'3536.9
2016-Dec-01 22:32N 45°37' W 122°48'354470.8
2016-Dec-01 22:31N 46°10' W 123°03'7101.0
2016-Dec-01 22:27N 46°05' W 122°56'2931.1
2016-Dec-01 21:32N 45°37' W 122°48'29974.0
2016-Dec-01 21:30N 46°05' W 122°56'731.9
2016-Dec-01 21:16N 46°10' W 123°03'3546.7
2016-Dec-01 20:32N 45°37' W 122°48'29160.3
2016-Dec-01 20:21N 46°05' W 122°56'7263.2
2016-Dec-01 20:19N 46°10' W 123°03'0 0.0
2016-Dec-01 19:31N 46°10' W 123°03'7325.7
2016-Dec-01 19:30N 46°05' W 122°56'291358.4
2016-Dec-01 19:29N 45°37' W 122°48'2927.9
2016-Dec-01 18:27N 46°05' W 122°56'291433.9
2016-Dec-01 18:26N 45°37' W 122°48'35610.7
2016-Dec-01 18:22N 46°10' W 123°03'0 0.0
2016-Dec-01 17:31N 46°10' W 123°03'35373.7
2016-Dec-01 17:26N 45°37' W 122°48'29356.0
2016-Dec-01 17:21N 46°05' W 122°56'7 8.8
2016-Dec-01 16:31N 46°10' W 123°03'35807.6
2016-Dec-01 16:29N 45°37' W 122°48'29974.0
2016-Dec-01 16:27N 46°05' W 122°56'7 7.9
2016-Dec-01 15:32N 46°10' W 123°03'3512518.4
2016-Dec-01 15:32N 45°37' W 122°48'29160.3
2016-Dec-01 15:21N 46°05' W 122°56'0 0.0
2016-Dec-01 14:33N 46°05' W 122°56'291433.9
2016-Dec-01 14:32N 45°37' W 122°48'35616.7
2016-Dec-01 14:28N 46°10' W 123°03'7 7.8
2016-Dec-01 13:33N 46°05' W 122°56'7268.6
2016-Dec-01 13:31N 46°10' W 123°03'35787.3
2016-Dec-01 13:29N 45°37' W 122°48'2930.9
2016-Dec-01 12:33N 46°05' W 122°56'291395.1
2016-Dec-01 12:32N 45°37' W 122°48'356954.7
2016-Dec-01 12:31N 46°10' W 123°03'7 7.4
2016-Dec-01 11:33N 46°05' W 122°56'291433.9
2016-Dec-01 11:32N 45°37' W 122°48'356259.2
2016-Dec-01 11:31N 46°10' W 123°03'3535.0
2016-Dec-01 10:32N 45°37' W 122°48'29938.6
2016-Dec-01 10:30N 46°05' W 122°56'7280.2
2016-Dec-01 10:28N 46°10' W 123°03'7 7.8
2016-Dec-01 09:33N 46°05' W 122°56'291496.2
2016-Dec-01 09:32N 45°37' W 122°48'35613.6
2016-Dec-01 09:28N 46°10' W 123°03'3536.8
2016-Dec-01 08:32N 45°37' W 122°48'356259.2
2016-Dec-01 08:31N 46°10' W 123°03'7296.1
2016-Dec-01 08:30N 46°05' W 122°56'2929.6
2016-Dec-01 07:32N 45°37' W 122°48'357824.0
2016-Dec-01 07:31N 46°10' W 123°03'796.5
2016-Dec-01 07:27N 46°05' W 122°56'7 7.8
2016-Dec-01 06:31N 46°10' W 123°03'758.2
2016-Dec-01 06:24N 46°05' W 122°56'29408.1
2016-Dec-01 06:20N 45°37' W 122°48'2936.8
2016-Dec-01 05:33N 46°05' W 122°56'291454.1
2016-Dec-01 05:32N 45°37' W 122°48'35635.5
2016-Dec-01 05:28N 46°10' W 123°03'7 7.8
2016-Dec-01 04:33N 46°05' W 122°56'291433.9
2016-Dec-01 04:32N 45°37' W 122°48'35169.9
2016-Dec-01 04:19N 46°10' W 123°03'3543.7
2016-Dec-01 03:32N 45°37' W 122°48'35642.0
2016-Dec-01 03:28N 46°10' W 123°03'732.1
2016-Dec-01 03:15N 46°05' W 122°56'0 0.0
2016-Dec-01 02:33N 46°05' W 122°56'291433.9
2016-Dec-01 02:32N 45°37' W 122°48'35225.6
2016-Dec-01 02:22N 46°10' W 123°03'3541.2
2016-Dec-01 01:32N 45°37' W 122°48'356588.6
2016-Dec-01 01:31N 46°10' W 123°03'797.2
2016-Dec-01 01:27N 46°05' W 122°56'0 0.0
2016-Dec-01 00:33N 46°05' W 122°56'291414.3
2016-Dec-01 00:32N 45°37' W 122°48'358345.6
2016-Dec-01 00:31N 46°10' W 123°03'0 0.0
2016-Nov-30 23:31N 46°10' W 123°03'35358.7
2016-Nov-30 23:26N 45°37' W 122°48'29361.0
2016-Nov-30 23:21N 46°05' W 122°56'0 0.0
2016-Nov-30 22:33N 46°05' W 122°56'291376.5
2016-Nov-30 22:32N 45°37' W 122°48'35333.8
2016-Nov-30 22:25N 46°10' W 123°03'7 8.3
2016-Nov-30 21:33N 46°05' W 122°56'291496.2
2016-Nov-30 21:32N 45°37' W 122°48'358345.6
2016-Nov-30 21:31N 46°10' W 123°03'3534.9
2016-Nov-30 20:32N 45°37' W 122°48'35655.4
2016-Nov-30 20:28N 46°10' W 123°03'7271.4
2016-Nov-30 20:27N 46°05' W 122°56'0 0.0
2016-Nov-30 19:33N 46°05' W 122°56'797.6
2016-Nov-30 19:28N 46°10' W 123°03'35745.1
2016-Nov-30 19:26N 45°37' W 122°48'3538.5
2016-Nov-30 18:31N 46°10' W 123°03'35745.1
2016-Nov-30 18:29N 45°37' W 122°48'29125.0
2016-Nov-30 18:15N 46°05' W 122°56'710.0
2016-Nov-30 17:31N 46°10' W 123°03'794.1
2016-Nov-30 17:27N 46°05' W 122°56'291433.9
2016-Nov-30 17:26N 45°37' W 122°48'0 0.0
2016-Nov-30 16:32N 45°37' W 122°48'3512518.4
2016-Nov-30 16:31N 46°10' W 123°03'7274.3
2016-Nov-30 16:30N 46°05' W 122°56'7 7.4
2016-Nov-30 15:31N 46°10' W 123°03'794.1
2016-Nov-30 15:27N 46°05' W 122°56'291433.9
2016-Nov-30 15:26N 45°37' W 122°48'2932.6
2016-Nov-30 14:33N 46°05' W 122°56'7296.1
2016-Nov-30 14:31N 46°10' W 123°03'351526.6
2016-Nov-30 14:30N 45°37' W 122°48'0 0.0
2016-Nov-30 13:30N 45°37' W 122°48'351290.6
2016-Nov-30 13:28N 46°10' W 123°03'7268.6
2016-Nov-30 13:27N 46°05' W 122°56'7 7.8
2016-Nov-30 12:31N 46°10' W 123°03'351508.2
2016-Nov-30 12:30N 45°37' W 122°48'297941.6
2016-Nov-30 12:30N 46°05' W 122°56'2930.3
2016-Nov-30 11:33N 45°37' W 122°48'298603.4
2016-Nov-30 11:33N 46°05' W 122°56'7501.1
2016-Nov-30 11:32N 46°10' W 123°03'0 0.0
2016-Nov-30 10:27N 46°10' W 123°03'35224.7
2016-Nov-30 10:18N 45°37' W 122°48'29301.0
2016-Nov-30 10:12N 46°05' W 122°56'2944.0
2016-Nov-30 09:33N 45°37' W 122°48'294301.7
2016-Nov-30 09:33N 46°05' W 122°56'763.6
2016-Nov-30 09:26N 46°10' W 123°03'7 8.2
2016-Nov-30 08:33N 46°05' W 122°56'29629.5
2016-Nov-30 08:30N 45°37' W 122°48'35106.7
2016-Nov-30 08:10N 46°10' W 123°03'711.6
2016-Nov-30 07:33N 46°05' W 122°56'7321.7
2016-Nov-30 07:32N 46°10' W 123°03'351375.6
2016-Nov-30 07:30N 45°37' W 122°48'2930.0
2016-Nov-30 06:33N 46°05' W 122°56'7329.8
2016-Nov-30 06:32N 46°10' W 123°03'351438.9
2016-Nov-30 06:30N 45°37' W 122°48'0 0.0
2016-Nov-30 05:33N 45°37' W 122°48'294916.2
2016-Nov-30 05:33N 46°05' W 122°56'7325.7
2016-Nov-30 05:31N 46°10' W 123°03'3535.7
2016-Nov-30 04:33N 45°37' W 122°48'2910324.1
2016-Nov-30 04:33N 46°05' W 122°56'7321.7
2016-Nov-30 04:32N 46°10' W 123°03'0 0.0
2016-Nov-30 03:29N 46°10' W 123°03'7260.6
2016-Nov-30 03:27N 46°05' W 122°56'29603.7
2016-Nov-30 03:24N 45°37' W 122°48'0 0.0
2016-Nov-30 02:33N 45°37' W 122°48'35275.7
2016-Nov-30 02:26N 46°10' W 123°03'792.4
2016-Nov-30 02:21N 46°05' W 122°56'2933.9
2016-Nov-30 01:30N 45°37' W 122°48'35276.3
2016-Nov-30 01:23N 46°10' W 123°03'7236.9
2016-Nov-30 01:21N 46°05' W 122°56'2936.1
2016-Nov-30 00:33N 45°37' W 122°48'295162.0
2016-Nov-30 00:33N 46°05' W 122°56'7372.2
2016-Nov-30 00:32N 46°10' W 123°03'7 7.4
2016-Nov-29 23:33N 46°05' W 122°56'7367.0
2016-Nov-29 23:32N 46°10' W 123°03'35197.5
2016-Nov-29 23:21N 45°37' W 122°48'2935.7
2016-Nov-29 22:33N 46°05' W 122°56'7325.7
2016-Nov-29 22:32N 46°10' W 123°03'35477.8
2016-Nov-29 22:27N 45°37' W 122°48'0 0.0
2016-Nov-29 21:33N 45°37' W 122°48'2910324.1
2016-Nov-29 21:33N 46°05' W 122°56'7103.4
2016-Nov-29 21:29N 46°10' W 123°03'7 7.8
2016-Nov-29 20:33N 46°05' W 122°56'29618.2
2016-Nov-29 20:30N 45°37' W 122°48'351472.7
2016-Nov-29 20:29N 46°10' W 123°03'7 7.8
2016-Nov-29 19:33N 46°05' W 122°56'29293.3
2016-Nov-29 19:27N 45°37' W 122°48'351564.8
2016-Nov-29 19:26N 46°10' W 123°03'3537.6
2016-Nov-29 18:30N 45°37' W 122°48'35460.2
2016-Nov-29 18:26N 46°10' W 123°03'756.4
2016-Nov-29 18:18N 46°05' W 122°56'7 9.4
2016-Nov-29 17:32N 46°10' W 123°03'351390.9
2016-Nov-29 17:30N 45°37' W 122°48'29540.5
2016-Nov-29 17:27N 46°05' W 122°56'2932.0
2016-Nov-29 16:33N 45°37' W 122°48'2910324.1
2016-Nov-29 16:33N 46°05' W 122°56'7372.2
2016-Nov-29 16:32N 46°10' W 123°03'7 6.7
2016-Nov-29 15:27N 46°05' W 122°56'201201.4
2016-Nov-29 15:26N 46°12' W 123°23'142512.2
2016-Nov-29 15:26N 46°10' W 123°03'351390.9
2016-Nov-29 15:24N 45°37' W 122°48'0 0.0
2016-Nov-29 14:30N 45°37' W 122°48'351508.2
2016-Nov-29 14:29N 46°10' W 123°03'7232.7
2016-Nov-29 14:27N 46°05' W 122°56'2932.0
2016-Nov-29 13:33N 45°37' W 122°48'352318.2
2016-Nov-29 13:32N 46°10' W 123°03'7183.5
2016-Nov-29 13:30N 46°05' W 122°56'7 7.5
2016-Nov-29 12:32N 46°10' W 123°03'351304.0
2016-Nov-29 12:30N 45°37' W 122°48'29529.4
2016-Nov-29 12:27N 46°05' W 122°56'2932.0
2016-Nov-29 11:33N 45°37' W 122°48'35474.2
2016-Nov-29 11:29N 46°10' W 123°03'755.6
2016-Nov-29 11:21N 46°05' W 122°56'2933.9
2016-Nov-29 10:30N 45°37' W 122°48'295735.6
2016-Nov-29 10:30N 46°05' W 122°56'7388.9
2016-Nov-29 10:29N 46°10' W 123°03'0 0.0
2016-Nov-29 09:32N 46°10' W 123°03'351304.0
2016-Nov-29 09:30N 45°37' W 122°48'29529.4
2016-Nov-29 09:27N 46°05' W 122°56'2932.0
2016-Nov-29 08:33N 45°37' W 122°48'2994.2
2016-Nov-29 08:15N 46°05' W 122°56'765.6
2016-Nov-29 08:08N 46°10' W 123°03'3559.4
2016-Nov-29 07:33N 45°37' W 122°48'297941.6
2016-Nov-29 07:33N 46°05' W 122°56'7744.5
2016-Nov-29 07:32N 46°10' W 123°03'3535.3
2016-Nov-29 06:33N 45°37' W 122°48'296882.7
2016-Nov-29 06:33N 46°05' W 122°56'7840.5
2016-Nov-29 06:32N 46°10' W 123°03'3535.2
2016-Nov-29 05:33N 45°37' W 122°48'29276.8
2016-Nov-29 05:27N 46°05' W 122°56'7105.9
2016-Nov-29 05:23N 46°10' W 123°03'3542.1
2016-Nov-29 04:33N 45°37' W 122°48'296882.7
2016-Nov-29 04:33N 46°05' W 122°56'7107.2
2016-Nov-29 04:29N 46°10' W 123°03'7 7.8
2016-Nov-29 03:33N 46°05' W 122°56'7413.6
2016-Nov-29 03:32N 46°10' W 123°03'351215.4
2016-Nov-29 03:30N 45°37' W 122°48'3535.8
2016-Nov-29 02:32N 46°10' W 123°03'351251.8
2016-Nov-29 02:30N 45°37' W 122°48'297374.4
2016-Nov-29 02:30N 46°05' W 122°56'0 0.0
2016-Nov-29 01:33N 46°05' W 122°56'761.2
2016-Nov-29 01:26N 46°10' W 123°03'35447.1
2016-Nov-29 01:21N 45°37' W 122°48'3542.3
2016-Nov-29 00:32N 46°10' W 123°03'786.9
2016-Nov-29 00:27N 46°05' W 122°56'29301.0
2016-Nov-29 00:21N 45°37' W 122°48'3542.3
2016-Nov-28 23:32N 46°10' W 123°03'7217.1
2016-Nov-28 23:30N 46°05' W 122°56'29621.9
2016-Nov-28 23:27N 45°37' W 122°48'2931.7
2016-Nov-28 22:33N 46°05' W 122°56'29621.9
2016-Nov-28 22:30N 45°37' W 122°48'35288.4
2016-Nov-28 22:23N 46°10' W 123°03'7 8.7
2016-Nov-28 21:33N 46°05' W 122°56'7407.1
2016-Nov-28 21:32N 46°10' W 123°03'351215.4
2016-Nov-28 21:30N 45°37' W 122°48'3535.8
2016-Nov-28 20:32N 46°10' W 123°03'35268.1
2016-Nov-28 20:24N 45°37' W 122°48'29277.5
2016-Nov-28 20:18N 46°05' W 122°56'0 0.0
2016-Nov-28 19:33N 46°05' W 122°56'7457.1
2016-Nov-28 19:32N 46°10' W 123°03'351127.8
2016-Nov-28 19:30N 45°37' W 122°48'0 0.0
2016-Nov-28 18:33N 45°37' W 122°48'29534.9
2016-Nov-28 18:30N 46°05' W 122°56'7457.1
2016-Nov-28 18:29N 46°10' W 123°03'3537.4
2016-Nov-28 17:33N 45°37' W 122°48'35489.0
2016-Nov-28 17:29N 46°10' W 123°03'754.2
2016-Nov-28 17:21N 46°05' W 122°56'7 8.9
2016-Nov-28 16:32N 46°10' W 123°03'7210.1
2016-Nov-28 16:30N 46°05' W 122°56'29629.5
2016-Nov-28 16:27N 45°37' W 122°48'2931.7
2016-Nov-28 15:33N 46°05' W 122°56'7482.5
2016-Nov-28 15:32N 46°10' W 123°03'351148.5
2016-Nov-28 15:30N 45°37' W 122°48'0 0.0
2016-Nov-28 14:33N 45°37' W 122°48'296073.0
2016-Nov-28 14:33N 46°05' W 122°56'7473.8
2016-Nov-28 14:32N 46°10' W 123°03'3535.5
2016-Nov-28 13:33N 45°37' W 122°48'295735.6
2016-Nov-28 13:33N 46°05' W 122°56'7501.1
2016-Nov-28 13:32N 46°10' W 123°03'0 0.0
2016-Nov-28 12:32N 46°10' W 123°03'7213.6
2016-Nov-28 12:30N 46°05' W 122°56'29603.7
2016-Nov-28 12:27N 45°37' W 122°48'3535.9
2016-Nov-28 11:29N 46°10' W 123°03'7206.8
2016-Nov-28 11:27N 46°05' W 122°56'29633.4
2016-Nov-28 11:24N 45°37' W 122°48'0 0.0
2016-Nov-28 10:30N 45°37' W 122°48'297374.4
2016-Nov-28 10:30N 46°05' W 122°56'733.6
2016-Nov-28 10:17N 46°10' W 123°03'7 9.9
2016-Nov-28 09:33N 46°05' W 122°56'29625.7
2016-Nov-28 09:30N 45°37' W 122°48'351814.3
2016-Nov-28 09:29N 46°10' W 123°03'3537.4
2016-Nov-28 08:33N 45°37' W 122°48'296073.0
2016-Nov-28 08:33N 46°05' W 122°56'7111.4
2016-Nov-28 08:29N 46°10' W 123°03'7 7.7
2016-Nov-28 07:33N 46°05' W 122°56'29637.3
2016-Nov-28 07:30N 45°37' W 122°48'351763.2
2016-Nov-28 07:29N 46°10' W 123°03'0 0.0
2016-Nov-28 06:32N 46°10' W 123°03'351069.9
2016-Nov-28 06:30N 45°37' W 122°48'297941.6
2016-Nov-28 06:30N 46°05' W 122°56'2930.3
2016-Nov-28 05:33N 45°37' W 122°48'296452.6
2016-Nov-28 05:33N 46°05' W 122°56'7521.1
2016-Nov-28 05:32N 46°10' W 123°03'3535.4
2016-Nov-28 04:33N 45°37' W 122°48'299385.5
2016-Nov-28 04:33N 46°05' W 122°56'7491.6
2016-Nov-28 04:32N 46°10' W 123°03'3533.7
2016-Nov-28 03:30N 45°37' W 122°48'351925.9
2016-Nov-28 03:29N 46°10' W 123°03'7203.6
2016-Nov-28 03:27N 46°05' W 122°56'0 0.0
2016-Nov-28 02:33N 46°05' W 122°56'7531.8
2016-Nov-28 02:32N 46°10' W 123°03'35262.4
2016-Nov-28 02:24N 45°37' W 122°48'2933.6
2016-Nov-28 01:33N 46°05' W 122°56'7531.8
2016-Nov-28 01:32N 46°10' W 123°03'351079.2
2016-Nov-28 01:30N 45°37' W 122°48'2930.1
2016-Nov-28 00:33N 46°05' W 122°56'7566.5
2016-Nov-28 00:32N 46°10' W 123°03'351052.0
2016-Nov-28 00:30N 45°37' W 122°48'0 0.0
2016-Nov-27 23:30N 45°37' W 122°48'296073.0
2016-Nov-27 23:30N 46°05' W 122°56'744.3
2016-Nov-27 23:20N 46°10' W 123°03'3544.5
2016-Nov-27 22:33N 45°37' W 122°48'296073.0
2016-Nov-27 22:33N 46°05' W 122°56'744.3
2016-Nov-27 22:23N 46°10' W 123°03'7 8.7
2016-Nov-27 21:33N 46°05' W 122°56'29625.7
2016-Nov-27 21:30N 45°37' W 122°48'35523.8
2016-Nov-27 21:26N 46°10' W 123°03'3539.4
2016-Nov-27 20:33N 45°37' W 122°48'296073.0
2016-Nov-27 20:33N 46°05' W 122°56'764.8
2016-Nov-27 20:26N 46°10' W 123°03'0 0.0
2016-Nov-27 19:32N 46°10' W 123°03'351026.1
2016-Nov-27 19:30N 45°37' W 122°48'29526.7
2016-Nov-27 19:27N 46°05' W 122°56'2930.3
2016-Nov-27 18:30N 45°37' W 122°48'296452.6
2016-Nov-27 18:30N 46°05' W 122°56'7542.9
2016-Nov-27 18:29N 46°10' W 123°03'7 7.7
2016-Nov-27 17:33N 46°05' W 122°56'29637.3
2016-Nov-27 17:30N 45°37' W 122°48'35112.7
2016-Nov-27 17:12N 46°10' W 123°03'0 0.0
2016-Nov-27 16:33N 46°10' W 123°03'774.9
2016-Nov-27 16:27N 46°05' W 122°56'29625.7
2016-Nov-27 16:24N 45°37' W 122°48'0 0.0
2016-Nov-27 15:33N 45°37' W 122°48'296073.0
2016-Nov-27 15:33N 46°05' W 122°56'71861.2
2016-Nov-27 15:33N 46°10' W 123°03'3535.1
2016-Nov-27 14:33N 45°37' W 122°48'297941.6
2016-Nov-27 14:33N 46°05' W 122°56'71628.6
2016-Nov-27 14:33N 46°10' W 123°03'3535.1
2016-Nov-27 13:33N 45°37' W 122°48'297941.6
2016-Nov-27 13:33N 46°05' W 122°56'71628.6
2016-Nov-27 13:33N 46°10' W 123°03'7 7.3
2016-Nov-27 12:33N 46°05' W 122°56'7566.5
2016-Nov-27 12:32N 46°10' W 123°03'35421.5
2016-Nov-27 12:27N 45°37' W 122°48'0 0.0
2016-Nov-27 11:33N 45°37' W 122°48'297374.4
2016-Nov-27 11:33N 46°05' W 122°56'7592.2
2016-Nov-27 11:32N 46°10' W 123°03'3535.3
2016-Nov-27 10:33N 45°37' W 122°48'297941.6
2016-Nov-27 10:33N 46°05' W 122°56'744.9
2016-Nov-27 10:23N 46°10' W 123°03'3541.7
2016-Nov-27 09:33N 45°37' W 122°48'296452.6
2016-Nov-27 09:33N 46°05' W 122°56'760.7
2016-Nov-27 09:26N 46°10' W 123°03'3537.5
2016-Nov-27 08:30N 45°37' W 122°48'351508.2
2016-Nov-27 08:29N 46°10' W 123°03'7230.6
2016-Nov-27 08:27N 46°05' W 122°56'7 7.9
2016-Nov-27 07:32N 46°10' W 123°03'351331.7
2016-Nov-27 07:30N 45°37' W 122°48'2911471.2
2016-Nov-27 07:30N 46°05' W 122°56'0 0.0
2016-Nov-27 06:33N 46°05' W 122°56'7372.2
2016-Nov-27 06:32N 46°10' W 123°03'351251.8
2016-Nov-27 06:30N 45°37' W 122°48'3535.7
2016-Nov-27 05:32N 46°10' W 123°03'351317.7
2016-Nov-27 05:30N 45°37' W 122°48'298603.4
2016-Nov-27 05:30N 46°05' W 122°56'7 7.5
2016-Nov-27 04:32N 46°10' W 123°03'35985.7
2016-Nov-27 04:30N 45°37' W 122°48'29277.5
2016-Nov-27 04:24N 46°05' W 122°56'7 8.4
2016-Nov-27 03:32N 46°10' W 123°03'35970.4
2016-Nov-27 03:30N 45°37' W 122°48'296452.6
2016-Nov-27 03:30N 46°05' W 122°56'0 0.0
2016-Nov-27 02:33N 46°05' W 122°56'761.5
2016-Nov-27 02:26N 46°10' W 123°03'351251.8
2016-Nov-27 02:24N 45°37' W 122°48'0 0.0
2016-Nov-27 01:33N 45°37' W 122°48'296882.7
2016-Nov-27 01:33N 46°05' W 122°56'761.0
2016-Nov-27 01:26N 46°10' W 123°03'3537.5
2016-Nov-27 00:30N 45°37' W 122°48'35479.6
2016-Nov-27 00:26N 46°10' W 123°03'787.7
2016-Nov-27 00:21N 46°05' W 122°56'2936.1
2016-Nov-26 23:33N 45°37' W 122°48'299385.5
2016-Nov-26 23:33N 46°05' W 122°56'7372.2
2016-Nov-26 23:32N 46°10' W 123°03'3535.6
2016-Nov-26 22:33N 45°37' W 122°48'296882.7
2016-Nov-26 22:33N 46°05' W 122°56'743.3
2016-Nov-26 22:23N 46°10' W 123°03'7 8.7
2016-Nov-26 21:33N 46°05' W 122°56'7106.4
2016-Nov-26 21:29N 46°10' W 123°03'351251.8
2016-Nov-26 21:27N 45°37' W 122°48'0 0.0
2016-Nov-26 20:33N 45°37' W 122°48'299385.5
2016-Nov-26 20:33N 46°05' W 122°56'761.6
2016-Nov-26 20:26N 46°10' W 123°03'0 0.0
2016-Nov-26 19:32N 46°10' W 123°03'351215.4
2016-Nov-26 19:30N 45°37' W 122°48'297941.6
2016-Nov-26 19:30N 46°05' W 122°56'7 7.5
2016-Nov-26 18:32N 46°10' W 123°03'7230.6
2016-Nov-26 18:30N 46°05' W 122°56'29146.9
2016-Nov-26 18:18N 45°37' W 122°48'0 0.0
2016-Nov-26 17:33N 45°37' W 122°48'296882.7
2016-Nov-26 17:33N 46°05' W 122°56'7420.3
2016-Nov-26 17:32N 46°10' W 123°03'7 7.4
2016-Nov-26 16:33N 46°05' W 122°56'7449.3
2016-Nov-26 16:32N 46°10' W 123°03'351192.2
2016-Nov-26 16:30N 45°37' W 122°48'0 0.0
2016-Nov-26 15:33N 45°37' W 122°48'29532.2
2016-Nov-26 15:30N 46°05' W 122°56'7108.1
2016-Nov-26 15:26N 46°10' W 123°03'3539.6
2016-Nov-26 14:33N 45°37' W 122°48'29276.0
2016-Nov-26 14:27N 46°05' W 122°56'762.2
2016-Nov-26 14:20N 46°10' W 123°03'7 9.2
2016-Nov-26 13:33N 46°05' W 122°56'29618.2
2016-Nov-26 13:30N 45°37' W 122°48'351714.8
2016-Nov-26 13:29N 46°10' W 123°03'7 7.7
2016-Nov-26 12:33N 46°05' W 122°56'7457.1
2016-Nov-26 12:32N 46°10' W 123°03'35437.7
2016-Nov-26 12:27N 45°37' W 122°48'0 0.0
2016-Nov-26 11:33N 45°37' W 122°48'358345.6
2016-Nov-26 11:33N 46°10' W 123°03'736.2
2016-Nov-26 11:21N 46°05' W 122°56'2936.0
2016-Nov-26 10:33N 45°37' W 122°48'297374.4
2016-Nov-26 10:33N 46°05' W 122°56'7145.6
2016-Nov-26 10:30N 46°10' W 123°03'0 0.0
2016-Nov-26 09:33N 46°10' W 123°03'713028.5
2016-Nov-26 09:33N 46°05' W 122°56'29614.5
2016-Nov-26 09:30N 45°37' W 122°48'2930.1
2016-Nov-26 08:33N 46°05' W 122°56'29196.3
2016-Nov-26 08:24N 45°37' W 122°48'358941.7
2016-Nov-26 08:24N 46°10' W 123°03'0 0.0
2016-Nov-26 07:33N 46°10' W 123°03'35740.7
2016-Nov-26 07:30N 45°37' W 122°48'297374.4
2016-Nov-26 07:30N 46°05' W 122°56'2930.3
2016-Nov-26 06:33N 45°37' W 122°48'297941.6
2016-Nov-26 06:33N 46°05' W 122°56'748.3
2016-Nov-26 06:24N 46°10' W 123°03'3541.1
2016-Nov-26 05:33N 45°37' W 122°48'29274.6
2016-Nov-26 05:27N 46°05' W 122°56'773.6
2016-Nov-26 05:21N 46°10' W 123°03'14823.7
2016-Nov-26 05:20N 46°12' W 123°23'2026.0
2016-Nov-26 04:33N 46°05' W 122°56'29625.7
2016-Nov-26 04:30N 45°37' W 122°48'3510432.0
2016-Nov-26 04:30N 46°10' W 123°03'1483.7
2016-Nov-26 04:20N 46°12' W 123°23'2026.0
2016-Nov-26 03:33N 46°05' W 122°56'201285.8
2016-Nov-26 03:32N 46°12' W 123°23'431429.5
2016-Nov-26 03:30N 45°37' W 122°48'35662.3
2016-Nov-26 03:27N 46°10' W 123°03'0 0.0
2016-Nov-26 02:33N 46°10' W 123°03'73722.4
2016-Nov-26 02:33N 46°05' W 122°56'29637.3
2016-Nov-26 02:30N 45°37' W 122°48'0 0.0
2016-Nov-26 01:33N 45°37' W 122°48'297374.4
2016-Nov-26 01:33N 46°05' W 122°56'7150.6
2016-Nov-26 01:30N 46°10' W 123°03'3536.7
2016-Nov-26 00:33N 45°37' W 122°48'296882.7
2016-Nov-26 00:33N 46°05' W 122°56'767.9
2016-Nov-26 00:26N 46°10' W 123°03'7 8.1
2016-Nov-25 23:33N 46°05' W 122°56'7501.1
2016-Nov-25 23:32N 46°10' W 123°03'351127.8
2016-Nov-25 23:30N 45°37' W 122°48'0 0.0
2016-Nov-25 22:33N 45°37' W 122°48'296882.7
2016-Nov-25 22:33N 46°05' W 122°56'7491.6
2016-Nov-25 22:32N 46°10' W 123°03'7 7.3
2016-Nov-25 21:33N 46°05' W 122°56'29629.5
2016-Nov-25 21:30N 45°37' W 122°48'351868.4
2016-Nov-25 21:29N 46°10' W 123°03'0 0.0
2016-Nov-25 20:32N 46°10' W 123°03'7206.8
2016-Nov-25 20:30N 46°05' W 122°56'29300.1
2016-Nov-25 20:24N 45°37' W 122°48'0 0.0
2016-Nov-25 19:30N 45°37' W 122°48'296073.0
2016-Nov-25 19:30N 46°05' W 122°56'7531.8
2016-Nov-25 19:29N 46°10' W 123°03'0 0.0
2016-Nov-25 18:32N 46°10' W 123°03'351107.8
2016-Nov-25 18:30N 45°37' W 122°48'29529.4
2016-Nov-25 18:27N 46°05' W 122°56'2932.0
2016-Nov-25 17:33N 45°37' W 122°48'296882.7
2016-Nov-25 17:33N 46°05' W 122°56'7510.9
2016-Nov-25 17:32N 46°10' W 123°03'7 7.3
2016-Nov-25 16:33N 46°05' W 122°56'  

Dump ship's entire track history